<?xml version="1.0" encoding="UTF-8" standalone="no" ?>
<gpx xmlns="http://www.topografix.com/GPX/1/1" xmlns:xsi="http://www.w3.org/2001/XMLSchema-instance" xsi:schemaLocation="http://www.topografix.com/GPX/1/1 http://www.topografix.com/GPX/1/1/gpx.xsd" version="1.1" creator="VisuGPX - https://www.visugpx.com">
  <metadata>
    <name>Calanque de Sugiton</name>
    <desc><![CDATA[Facile,départ du Col de la Gineste,
et vallon Ricard,malheureusement dévasté par les incendies.]]></desc>
  </metadata>
  <trk>
    <name><![CDATA[Calanque de Sugiton_1]]></name>
    <trkseg>
      <trkpt lat="43.23945" lon="5.4569">
        <ele>328.299987</ele>
        <time>2017-11-22T07:34:48Z</time>
      </trkpt>
      <trkpt lat="43.23945" lon="5.45689">
        <ele>328.399993</ele>
        <time>2017-11-22T07:34:49Z</time>
      </trkpt>
      <trkpt lat="43.23945" lon="5.45647">
        <ele>325.7</ele>
        <time>2017-11-22T07:35:25Z</time>
      </trkpt>
      <trkpt lat="43.23953" lon="5.45626">
        <ele>326.6</ele>
        <time>2017-11-22T07:35:48Z</time>
      </trkpt>
      <trkpt lat="43.23963" lon="5.45605">
        <ele>325.3</ele>
        <time>2017-11-22T07:36:15Z</time>
      </trkpt>
      <trkpt lat="43.23963" lon="5.45605">
        <ele>325.2</ele>
        <time>2017-11-22T07:36:16Z</time>
      </trkpt>
      <trkpt lat="43.23983" lon="5.45566">
        <ele>321.7</ele>
        <time>2017-11-22T07:37:03Z</time>
      </trkpt>
      <trkpt lat="43.23992" lon="5.45546">
        <ele>320.5</ele>
        <time>2017-11-22T07:37:21Z</time>
      </trkpt>
      <trkpt lat="43.23993" lon="5.45545">
        <ele>320.2</ele>
        <time>2017-11-22T07:37:22Z</time>
      </trkpt>
      <trkpt lat="43.24006" lon="5.45503">
        <ele>316.7</ele>
        <time>2017-11-22T07:37:55Z</time>
      </trkpt>
      <trkpt lat="43.24012" lon="5.4548">
        <ele>315.2</ele>
        <time>2017-11-22T07:38:11Z</time>
      </trkpt>
      <trkpt lat="43.24015" lon="5.45456">
        <ele>313.5</ele>
        <time>2017-11-22T07:38:26Z</time>
      </trkpt>
      <trkpt lat="43.24015" lon="5.45455">
        <ele>313.5</ele>
        <time>2017-11-22T07:38:27Z</time>
      </trkpt>
      <trkpt lat="43.24016" lon="5.45408">
        <ele>309.2</ele>
        <time>2017-11-22T07:38:56Z</time>
      </trkpt>
      <trkpt lat="43.24015" lon="5.45385">
        <ele>307.8</ele>
        <time>2017-11-22T07:39:10Z</time>
      </trkpt>
      <trkpt lat="43.24012" lon="5.45361">
        <ele>306.3</ele>
        <time>2017-11-22T07:39:25Z</time>
      </trkpt>
      <trkpt lat="43.24006" lon="5.45339">
        <ele>305.1</ele>
        <time>2017-11-22T07:39:40Z</time>
      </trkpt>
      <trkpt lat="43.24006" lon="5.45337">
        <ele>305.1</ele>
        <time>2017-11-22T07:39:41Z</time>
      </trkpt>
      <trkpt lat="43.23992" lon="5.45294">
        <ele>304.2</ele>
        <time>2017-11-22T07:40:09Z</time>
      </trkpt>
      <trkpt lat="43.23984" lon="5.45273">
        <ele>303.7</ele>
        <time>2017-11-22T07:40:23Z</time>
      </trkpt>
      <trkpt lat="43.23976" lon="5.45252">
        <ele>306</ele>
        <time>2017-11-22T07:40:36Z</time>
      </trkpt>
      <trkpt lat="43.23966" lon="5.45232">
        <ele>306.2</ele>
        <time>2017-11-22T07:40:50Z</time>
      </trkpt>
      <trkpt lat="43.23966" lon="5.45231">
        <ele>306.1</ele>
        <time>2017-11-22T07:40:51Z</time>
      </trkpt>
      <trkpt lat="43.23954" lon="5.45188">
        <ele>301.3</ele>
        <time>2017-11-22T07:41:22Z</time>
      </trkpt>
      <trkpt lat="43.23949" lon="5.45164">
        <ele>297.2</ele>
        <time>2017-11-22T07:41:40Z</time>
      </trkpt>
      <trkpt lat="43.23947" lon="5.45141">
        <ele>294</ele>
        <time>2017-11-22T07:41:57Z</time>
      </trkpt>
      <trkpt lat="43.23947" lon="5.45139">
        <ele>293.8</ele>
        <time>2017-11-22T07:41:58Z</time>
      </trkpt>
      <trkpt lat="43.23937" lon="5.45096">
        <ele>289.8</ele>
        <time>2017-11-22T07:42:28Z</time>
      </trkpt>
      <trkpt lat="43.23932" lon="5.45072">
        <ele>289.2</ele>
        <time>2017-11-22T07:42:43Z</time>
      </trkpt>
      <trkpt lat="43.23936" lon="5.45049">
        <ele>289.7</ele>
        <time>2017-11-22T07:42:57Z</time>
      </trkpt>
      <trkpt lat="43.23944" lon="5.45027">
        <ele>289.7</ele>
        <time>2017-11-22T07:43:13Z</time>
      </trkpt>
      <trkpt lat="43.23944" lon="5.45026">
        <ele>289.7</ele>
        <time>2017-11-22T07:43:14Z</time>
      </trkpt>
      <trkpt lat="43.23937" lon="5.44983">
        <ele>284.8</ele>
        <time>2017-11-22T07:43:47Z</time>
      </trkpt>
      <trkpt lat="43.23955" lon="5.44981">
        <ele>284.7</ele>
        <time>2017-11-22T07:44:22Z</time>
      </trkpt>
      <trkpt lat="43.23956" lon="5.44982">
        <ele>284.5</ele>
        <time>2017-11-22T07:44:23Z</time>
      </trkpt>
      <trkpt lat="43.23984" lon="5.45008">
        <ele>279.7</ele>
        <time>2017-11-22T07:44:57Z</time>
      </trkpt>
      <trkpt lat="43.24" lon="5.45019">
        <ele>277.1</ele>
        <time>2017-11-22T07:45:15Z</time>
      </trkpt>
      <trkpt lat="43.24015" lon="5.45031">
        <ele>273.2</ele>
        <time>2017-11-22T07:45:34Z</time>
      </trkpt>
      <trkpt lat="43.24015" lon="5.45032">
        <ele>273</ele>
        <time>2017-11-22T07:45:35Z</time>
      </trkpt>
      <trkpt lat="43.24045" lon="5.45052">
        <ele>266.2</ele>
        <time>2017-11-22T07:46:13Z</time>
      </trkpt>
      <trkpt lat="43.24061" lon="5.4506">
        <ele>260.7</ele>
        <time>2017-11-22T07:46:31Z</time>
      </trkpt>
      <trkpt lat="43.24078" lon="5.45068">
        <ele>255.8</ele>
        <time>2017-11-22T07:46:49Z</time>
      </trkpt>
      <trkpt lat="43.24079" lon="5.45068">
        <ele>255.3</ele>
        <time>2017-11-22T07:46:50Z</time>
      </trkpt>
      <trkpt lat="43.24111" lon="5.45085">
        <ele>250.6</ele>
        <time>2017-11-22T07:47:25Z</time>
      </trkpt>
      <trkpt lat="43.24111" lon="5.45061">
        <ele>243.1</ele>
        <time>2017-11-22T07:48:08Z</time>
      </trkpt>
      <trkpt lat="43.24111" lon="5.4506">
        <ele>242.8</ele>
        <time>2017-11-22T07:48:09Z</time>
      </trkpt>
      <trkpt lat="43.24095" lon="5.45018">
        <ele>233.3</ele>
        <time>2017-11-22T07:48:55Z</time>
      </trkpt>
      <trkpt lat="43.24087" lon="5.44997">
        <ele>230.3</ele>
        <time>2017-11-22T07:49:18Z</time>
      </trkpt>
      <trkpt lat="43.24087" lon="5.44996">
        <ele>230.3</ele>
        <time>2017-11-22T07:49:19Z</time>
      </trkpt>
      <trkpt lat="43.24072" lon="5.44953">
        <ele>223.6</ele>
        <time>2017-11-22T07:50:00Z</time>
      </trkpt>
      <trkpt lat="43.2407" lon="5.44929">
        <ele>221.6</ele>
        <time>2017-11-22T07:50:27Z</time>
      </trkpt>
      <trkpt lat="43.2407" lon="5.44928">
        <ele>221.5</ele>
        <time>2017-11-22T07:50:28Z</time>
      </trkpt>
      <trkpt lat="43.24066" lon="5.44881">
        <ele>212.8</ele>
        <time>2017-11-22T07:51:12Z</time>
      </trkpt>
      <trkpt lat="43.24065" lon="5.44857">
        <ele>209.5</ele>
        <time>2017-11-22T07:51:33Z</time>
      </trkpt>
      <trkpt lat="43.24065" lon="5.44856">
        <ele>209.1</ele>
        <time>2017-11-22T07:51:34Z</time>
      </trkpt>
      <trkpt lat="43.24059" lon="5.4481">
        <ele>199.3</ele>
        <time>2017-11-22T07:52:14Z</time>
      </trkpt>
      <trkpt lat="43.24055" lon="5.44786">
        <ele>196.8</ele>
        <time>2017-11-22T07:52:35Z</time>
      </trkpt>
      <trkpt lat="43.24055" lon="5.44785">
        <ele>196.6</ele>
        <time>2017-11-22T07:52:36Z</time>
      </trkpt>
      <trkpt lat="43.24046" lon="5.4474">
        <ele>191.1</ele>
        <time>2017-11-22T07:53:12Z</time>
      </trkpt>
      <trkpt lat="43.2404" lon="5.44717">
        <ele>188.1</ele>
        <time>2017-11-22T07:53:31Z</time>
      </trkpt>
      <trkpt lat="43.24036" lon="5.44694">
        <ele>185.6</ele>
        <time>2017-11-22T07:53:48Z</time>
      </trkpt>
      <trkpt lat="43.24035" lon="5.44692">
        <ele>185.3</ele>
        <time>2017-11-22T07:53:49Z</time>
      </trkpt>
      <trkpt lat="43.2402" lon="5.4465">
        <ele>183.5</ele>
        <time>2017-11-22T07:54:21Z</time>
      </trkpt>
      <trkpt lat="43.24016" lon="5.44626">
        <ele>180.8</ele>
        <time>2017-11-22T07:54:38Z</time>
      </trkpt>
      <trkpt lat="43.24016" lon="5.44603">
        <ele>178.6</ele>
        <time>2017-11-22T07:54:56Z</time>
      </trkpt>
      <trkpt lat="43.24016" lon="5.44602">
        <ele>178.3</ele>
        <time>2017-11-22T07:54:57Z</time>
      </trkpt>
      <trkpt lat="43.2402" lon="5.44555">
        <ele>168.6</ele>
        <time>2017-11-22T07:56:14Z</time>
      </trkpt>
      <trkpt lat="43.2402" lon="5.44554">
        <ele>168.6</ele>
        <time>2017-11-22T07:56:15Z</time>
      </trkpt>
      <trkpt lat="43.24025" lon="5.44508">
        <ele>164.1</ele>
        <time>2017-11-22T07:56:59Z</time>
      </trkpt>
      <trkpt lat="43.2403" lon="5.44484">
        <ele>161.8</ele>
        <time>2017-11-22T07:57:20Z</time>
      </trkpt>
      <trkpt lat="43.2403" lon="5.44483">
        <ele>161.8</ele>
        <time>2017-11-22T07:57:21Z</time>
      </trkpt>
      <trkpt lat="43.24038" lon="5.44437">
        <ele>155.8</ele>
        <time>2017-11-22T07:58:08Z</time>
      </trkpt>
      <trkpt lat="43.24035" lon="5.44413">
        <ele>151.3</ele>
        <time>2017-11-22T07:58:35Z</time>
      </trkpt>
      <trkpt lat="43.24034" lon="5.44412">
        <ele>151.3</ele>
        <time>2017-11-22T07:58:36Z</time>
      </trkpt>
      <trkpt lat="43.24021" lon="5.44396">
        <ele>152.6</ele>
        <time>2017-11-22T08:03:39Z</time>
      </trkpt>
      <trkpt lat="43.23995" lon="5.44366">
        <ele>153.5</ele>
        <time>2017-11-22T08:04:15Z</time>
      </trkpt>
      <trkpt lat="43.24" lon="5.4439">
        <ele>159.6</ele>
        <time>2017-11-22T08:05:22Z</time>
      </trkpt>
      <trkpt lat="43.24001" lon="5.44391">
        <ele>160</ele>
        <time>2017-11-22T08:05:23Z</time>
      </trkpt>
      <trkpt lat="43.23969" lon="5.4437">
        <ele>161.8</ele>
        <time>2017-11-22T08:06:11Z</time>
      </trkpt>
      <trkpt lat="43.23954" lon="5.44359">
        <ele>164.8</ele>
        <time>2017-11-22T08:06:27Z</time>
      </trkpt>
      <trkpt lat="43.23953" lon="5.44358">
        <ele>165.1</ele>
        <time>2017-11-22T08:06:28Z</time>
      </trkpt>
      <trkpt lat="43.23923" lon="5.44343">
        <ele>169.1</ele>
        <time>2017-11-22T08:07:02Z</time>
      </trkpt>
      <trkpt lat="43.23906" lon="5.44349">
        <ele>171.3</ele>
        <time>2017-11-22T08:07:20Z</time>
      </trkpt>
      <trkpt lat="43.23919" lon="5.44365">
        <ele>170.1</ele>
        <time>2017-11-22T08:07:59Z</time>
      </trkpt>
      <trkpt lat="43.2392" lon="5.44366">
        <ele>170.1</ele>
        <time>2017-11-22T08:08:00Z</time>
      </trkpt>
      <trkpt lat="43.23886" lon="5.44379">
        <ele>176.1</ele>
        <time>2017-11-22T08:08:45Z</time>
      </trkpt>
      <trkpt lat="43.23875" lon="5.44398">
        <ele>178.8</ele>
        <time>2017-11-22T08:09:03Z</time>
      </trkpt>
      <trkpt lat="43.23875" lon="5.44399">
        <ele>179.1</ele>
        <time>2017-11-22T08:09:04Z</time>
      </trkpt>
      <trkpt lat="43.23851" lon="5.44428">
        <ele>181.5</ele>
        <time>2017-11-22T08:09:39Z</time>
      </trkpt>
      <trkpt lat="43.23834" lon="5.44435">
        <ele>183.6</ele>
        <time>2017-11-22T08:09:56Z</time>
      </trkpt>
      <trkpt lat="43.23822" lon="5.44452">
        <ele>185.5</ele>
        <time>2017-11-22T08:10:13Z</time>
      </trkpt>
      <trkpt lat="43.23821" lon="5.44453">
        <ele>185.6</ele>
        <time>2017-11-22T08:10:14Z</time>
      </trkpt>
      <trkpt lat="43.23815" lon="5.44499">
        <ele>186.1</ele>
        <time>2017-11-22T08:10:46Z</time>
      </trkpt>
      <trkpt lat="43.23815" lon="5.44522">
        <ele>187.8</ele>
        <time>2017-11-22T08:11:03Z</time>
      </trkpt>
      <trkpt lat="43.23817" lon="5.44546">
        <ele>189.1</ele>
        <time>2017-11-22T08:11:20Z</time>
      </trkpt>
      <trkpt lat="43.23818" lon="5.44548">
        <ele>189.3</ele>
        <time>2017-11-22T08:11:21Z</time>
      </trkpt>
      <trkpt lat="43.23818" lon="5.44594">
        <ele>193.1</ele>
        <time>2017-11-22T08:11:53Z</time>
      </trkpt>
      <trkpt lat="43.23805" lon="5.44611">
        <ele>194.6</ele>
        <time>2017-11-22T08:12:10Z</time>
      </trkpt>
      <trkpt lat="43.2379" lon="5.44622">
        <ele>195.6</ele>
        <time>2017-11-22T08:12:27Z</time>
      </trkpt>
      <trkpt lat="43.23789" lon="5.44623">
        <ele>195.6</ele>
        <time>2017-11-22T08:12:28Z</time>
      </trkpt>
      <trkpt lat="43.23791" lon="5.44633">
        <ele>195.1</ele>
        <time>2017-11-22T08:13:08Z</time>
      </trkpt>
      <trkpt lat="43.23809" lon="5.44631">
        <ele>194.3</ele>
        <time>2017-11-22T08:14:42Z</time>
      </trkpt>
      <trkpt lat="43.2381" lon="5.44631">
        <ele>194</ele>
        <time>2017-11-22T08:14:43Z</time>
      </trkpt>
      <trkpt lat="43.2384" lon="5.44613">
        <ele>196</ele>
        <time>2017-11-22T08:15:12Z</time>
      </trkpt>
      <trkpt lat="43.23852" lon="5.44595">
        <ele>194.8</ele>
        <time>2017-11-22T08:15:28Z</time>
      </trkpt>
      <trkpt lat="43.23857" lon="5.44573">
        <ele>195.6</ele>
        <time>2017-11-22T08:15:44Z</time>
      </trkpt>
      <trkpt lat="43.23858" lon="5.44571">
        <ele>195.8</ele>
        <time>2017-11-22T08:15:45Z</time>
      </trkpt>
      <trkpt lat="43.23865" lon="5.44527">
        <ele>199.5</ele>
        <time>2017-11-22T08:16:13Z</time>
      </trkpt>
      <trkpt lat="43.23882" lon="5.44519">
        <ele>202.6</ele>
        <time>2017-11-22T08:16:30Z</time>
      </trkpt>
      <trkpt lat="43.23899" lon="5.44522">
        <ele>204.5</ele>
        <time>2017-11-22T08:16:47Z</time>
      </trkpt>
      <trkpt lat="43.239" lon="5.44522">
        <ele>204.6</ele>
        <time>2017-11-22T08:16:48Z</time>
      </trkpt>
      <trkpt lat="43.2388" lon="5.44561">
        <ele>213.3</ele>
        <time>2017-11-22T08:17:39Z</time>
      </trkpt>
      <trkpt lat="43.23878" lon="5.44585">
        <ele>214.8</ele>
        <time>2017-11-22T08:17:56Z</time>
      </trkpt>
      <trkpt lat="43.23878" lon="5.44587">
        <ele>215.1</ele>
        <time>2017-11-22T08:17:57Z</time>
      </trkpt>
      <trkpt lat="43.23868" lon="5.4463">
        <ele>218.5</ele>
        <time>2017-11-22T08:18:31Z</time>
      </trkpt>
      <trkpt lat="43.23861" lon="5.44652">
        <ele>221.3</ele>
        <time>2017-11-22T08:18:47Z</time>
      </trkpt>
      <trkpt lat="43.2385" lon="5.44672">
        <ele>224.5</ele>
        <time>2017-11-22T08:19:04Z</time>
      </trkpt>
      <trkpt lat="43.23849" lon="5.44673">
        <ele>224.6</ele>
        <time>2017-11-22T08:19:05Z</time>
      </trkpt>
      <trkpt lat="43.23823" lon="5.44702">
        <ele>230</ele>
        <time>2017-11-22T08:19:39Z</time>
      </trkpt>
      <trkpt lat="43.23809" lon="5.44717">
        <ele>232.1</ele>
        <time>2017-11-22T08:19:58Z</time>
      </trkpt>
      <trkpt lat="43.23805" lon="5.4474">
        <ele>232.3</ele>
        <time>2017-11-22T08:20:18Z</time>
      </trkpt>
      <trkpt lat="43.23805" lon="5.44742">
        <ele>232.3</ele>
        <time>2017-11-22T08:20:19Z</time>
      </trkpt>
      <trkpt lat="43.23809" lon="5.44788">
        <ele>229.8</ele>
        <time>2017-11-22T08:20:50Z</time>
      </trkpt>
      <trkpt lat="43.23808" lon="5.44813">
        <ele>227.6</ele>
        <time>2017-11-22T08:21:07Z</time>
      </trkpt>
      <trkpt lat="43.23803" lon="5.44837">
        <ele>225.8</ele>
        <time>2017-11-22T08:21:24Z</time>
      </trkpt>
      <trkpt lat="43.23803" lon="5.44838">
        <ele>225.6</ele>
        <time>2017-11-22T08:21:25Z</time>
      </trkpt>
      <trkpt lat="43.23802" lon="5.44885">
        <ele>226.1</ele>
        <time>2017-11-22T08:21:56Z</time>
      </trkpt>
      <trkpt lat="43.23804" lon="5.44909">
        <ele>226.3</ele>
        <time>2017-11-22T08:22:11Z</time>
      </trkpt>
      <trkpt lat="43.238" lon="5.44932">
        <ele>226.5</ele>
        <time>2017-11-22T08:22:26Z</time>
      </trkpt>
      <trkpt lat="43.238" lon="5.44934">
        <ele>226.5</ele>
        <time>2017-11-22T08:22:27Z</time>
      </trkpt>
      <trkpt lat="43.23791" lon="5.44978">
        <ele>226.3</ele>
        <time>2017-11-22T08:22:57Z</time>
      </trkpt>
      <trkpt lat="43.23794" lon="5.45002">
        <ele>226.8</ele>
        <time>2017-11-22T08:23:14Z</time>
      </trkpt>
      <trkpt lat="43.23806" lon="5.45021">
        <ele>226.3</ele>
        <time>2017-11-22T08:23:29Z</time>
      </trkpt>
      <trkpt lat="43.23806" lon="5.45023">
        <ele>226.3</ele>
        <time>2017-11-22T08:23:30Z</time>
      </trkpt>
      <trkpt lat="43.23818" lon="5.45066">
        <ele>228.1</ele>
        <time>2017-11-22T08:24:00Z</time>
      </trkpt>
      <trkpt lat="43.23818" lon="5.45089">
        <ele>229.1</ele>
        <time>2017-11-22T08:24:16Z</time>
      </trkpt>
      <trkpt lat="43.23816" lon="5.45114">
        <ele>228.3</ele>
        <time>2017-11-22T08:24:32Z</time>
      </trkpt>
      <trkpt lat="43.23816" lon="5.45115">
        <ele>228.3</ele>
        <time>2017-11-22T08:24:33Z</time>
      </trkpt>
      <trkpt lat="43.23796" lon="5.45153">
        <ele>229.3</ele>
        <time>2017-11-22T08:25:02Z</time>
      </trkpt>
      <trkpt lat="43.23795" lon="5.45177">
        <ele>228.3</ele>
        <time>2017-11-22T08:25:17Z</time>
      </trkpt>
      <trkpt lat="43.23797" lon="5.452">
        <ele>228.1</ele>
        <time>2017-11-22T08:25:32Z</time>
      </trkpt>
      <trkpt lat="43.23799" lon="5.45224">
        <ele>229.5</ele>
        <time>2017-11-22T08:25:47Z</time>
      </trkpt>
      <trkpt lat="43.23799" lon="5.45225">
        <ele>229.6</ele>
        <time>2017-11-22T08:25:48Z</time>
      </trkpt>
      <trkpt lat="43.23787" lon="5.45266">
        <ele>230.5</ele>
        <time>2017-11-22T08:26:18Z</time>
      </trkpt>
      <trkpt lat="43.23772" lon="5.45278">
        <ele>230.8</ele>
        <time>2017-11-22T08:26:41Z</time>
      </trkpt>
      <trkpt lat="43.23759" lon="5.45296">
        <ele>231</ele>
        <time>2017-11-22T08:26:57Z</time>
      </trkpt>
      <trkpt lat="43.23759" lon="5.45298">
        <ele>231</ele>
        <time>2017-11-22T08:26:58Z</time>
      </trkpt>
      <trkpt lat="43.23777" lon="5.45334">
        <ele>228.8</ele>
        <time>2017-11-22T08:27:32Z</time>
      </trkpt>
      <trkpt lat="43.23793" lon="5.45343">
        <ele>226.8</ele>
        <time>2017-11-22T08:27:47Z</time>
      </trkpt>
      <trkpt lat="43.2381" lon="5.4535">
        <ele>225</ele>
        <time>2017-11-22T08:28:03Z</time>
      </trkpt>
      <trkpt lat="43.23811" lon="5.4535">
        <ele>225</ele>
        <time>2017-11-22T08:28:04Z</time>
      </trkpt>
      <trkpt lat="43.23826" lon="5.45379">
        <ele>223.6</ele>
        <time>2017-11-22T08:28:44Z</time>
      </trkpt>
      <trkpt lat="43.23811" lon="5.45391">
        <ele>223.1</ele>
        <time>2017-11-22T08:28:59Z</time>
      </trkpt>
      <trkpt lat="43.23796" lon="5.45403">
        <ele>222.3</ele>
        <time>2017-11-22T08:29:13Z</time>
      </trkpt>
      <trkpt lat="43.23795" lon="5.45403">
        <ele>222.3</ele>
        <time>2017-11-22T08:29:14Z</time>
      </trkpt>
      <trkpt lat="43.23765" lon="5.45424">
        <ele>220.6</ele>
        <time>2017-11-22T08:29:42Z</time>
      </trkpt>
      <trkpt lat="43.23749" lon="5.45433">
        <ele>219.5</ele>
        <time>2017-11-22T08:29:57Z</time>
      </trkpt>
      <trkpt lat="43.23736" lon="5.45448">
        <ele>219.1</ele>
        <time>2017-11-22T08:30:11Z</time>
      </trkpt>
      <trkpt lat="43.23719" lon="5.45446">
        <ele>215.5</ele>
        <time>2017-11-22T08:30:30Z</time>
      </trkpt>
      <trkpt lat="43.23718" lon="5.45445">
        <ele>215.1</ele>
        <time>2017-11-22T08:30:31Z</time>
      </trkpt>
      <trkpt lat="43.23688" lon="5.45431">
        <ele>212.1</ele>
        <time>2017-11-22T08:31:02Z</time>
      </trkpt>
      <trkpt lat="43.23671" lon="5.45438">
        <ele>212.3</ele>
        <time>2017-11-22T08:31:17Z</time>
      </trkpt>
      <trkpt lat="43.23657" lon="5.45452">
        <ele>212.6</ele>
        <time>2017-11-22T08:31:32Z</time>
      </trkpt>
      <trkpt lat="43.23656" lon="5.45453">
        <ele>212.6</ele>
        <time>2017-11-22T08:31:33Z</time>
      </trkpt>
      <trkpt lat="43.2363" lon="5.45448">
        <ele>207.3</ele>
        <time>2017-11-22T08:32:07Z</time>
      </trkpt>
      <trkpt lat="43.2362" lon="5.45428">
        <ele>204.5</ele>
        <time>2017-11-22T08:32:24Z</time>
      </trkpt>
      <trkpt lat="43.23603" lon="5.45419">
        <ele>204</ele>
        <time>2017-11-22T08:32:40Z</time>
      </trkpt>
      <trkpt lat="43.23602" lon="5.4542">
        <ele>204.1</ele>
        <time>2017-11-22T08:32:41Z</time>
      </trkpt>
      <trkpt lat="43.23577" lon="5.45446">
        <ele>204.3</ele>
        <time>2017-11-22T08:33:12Z</time>
      </trkpt>
      <trkpt lat="43.23573" lon="5.45469">
        <ele>204</ele>
        <time>2017-11-22T08:33:29Z</time>
      </trkpt>
      <trkpt lat="43.2357" lon="5.45491">
        <ele>204.8</ele>
        <time>2017-11-22T08:33:44Z</time>
      </trkpt>
      <trkpt lat="43.23569" lon="5.45493">
        <ele>205.1</ele>
        <time>2017-11-22T08:33:45Z</time>
      </trkpt>
      <trkpt lat="43.23554" lon="5.45535">
        <ele>204</ele>
        <time>2017-11-22T08:34:14Z</time>
      </trkpt>
      <trkpt lat="43.23538" lon="5.45547">
        <ele>203.1</ele>
        <time>2017-11-22T08:34:28Z</time>
      </trkpt>
      <trkpt lat="43.23524" lon="5.45561">
        <ele>202.3</ele>
        <time>2017-11-22T08:34:42Z</time>
      </trkpt>
      <trkpt lat="43.23509" lon="5.45575">
        <ele>202</ele>
        <time>2017-11-22T08:34:55Z</time>
      </trkpt>
      <trkpt lat="43.23508" lon="5.45576">
        <ele>202.1</ele>
        <time>2017-11-22T08:34:56Z</time>
      </trkpt>
      <trkpt lat="43.2348" lon="5.45602">
        <ele>199.6</ele>
        <time>2017-11-22T08:35:22Z</time>
      </trkpt>
      <trkpt lat="43.23464" lon="5.45609">
        <ele>199.1</ele>
        <time>2017-11-22T08:35:35Z</time>
      </trkpt>
      <trkpt lat="43.23447" lon="5.45611">
        <ele>199.3</ele>
        <time>2017-11-22T08:35:50Z</time>
      </trkpt>
      <trkpt lat="43.23431" lon="5.45618">
        <ele>200.8</ele>
        <time>2017-11-22T08:36:07Z</time>
      </trkpt>
      <trkpt lat="43.23429" lon="5.45619">
        <ele>200.6</ele>
        <time>2017-11-22T08:36:08Z</time>
      </trkpt>
      <trkpt lat="43.23397" lon="5.45625">
        <ele>179.8</ele>
        <time>2017-11-22T08:38:55Z</time>
      </trkpt>
      <trkpt lat="43.23396" lon="5.45626">
        <ele>178.6</ele>
        <time>2017-11-22T08:38:56Z</time>
      </trkpt>
      <trkpt lat="43.23398" lon="5.4565">
        <ele>198.3</ele>
        <time>2017-11-22T08:42:40Z</time>
      </trkpt>
      <trkpt lat="43.23385" lon="5.4569">
        <ele>204.6</ele>
        <time>2017-11-22T08:43:17Z</time>
      </trkpt>
      <trkpt lat="43.23369" lon="5.45698">
        <ele>209.1</ele>
        <time>2017-11-22T08:43:34Z</time>
      </trkpt>
      <trkpt lat="43.23356" lon="5.45713">
        <ele>214.3</ele>
        <time>2017-11-22T08:43:52Z</time>
      </trkpt>
      <trkpt lat="43.23355" lon="5.45714">
        <ele>215</ele>
        <time>2017-11-22T08:43:53Z</time>
      </trkpt>
      <trkpt lat="43.23324" lon="5.45736">
        <ele>206.5</ele>
        <time>2017-11-22T08:44:30Z</time>
      </trkpt>
      <trkpt lat="43.23307" lon="5.45731">
        <ele>212.3</ele>
        <time>2017-11-22T08:44:53Z</time>
      </trkpt>
      <trkpt lat="43.23306" lon="5.45731">
        <ele>212.5</ele>
        <time>2017-11-22T08:44:54Z</time>
      </trkpt>
      <trkpt lat="43.23274" lon="5.45719">
        <ele>215.3</ele>
        <time>2017-11-22T08:45:29Z</time>
      </trkpt>
      <trkpt lat="43.23257" lon="5.45724">
        <ele>222.6</ele>
        <time>2017-11-22T08:45:48Z</time>
      </trkpt>
      <trkpt lat="43.23242" lon="5.45734">
        <ele>222.8</ele>
        <time>2017-11-22T08:46:06Z</time>
      </trkpt>
      <trkpt lat="43.23241" lon="5.45735">
        <ele>222.1</ele>
        <time>2017-11-22T08:46:07Z</time>
      </trkpt>
      <trkpt lat="43.2321" lon="5.45755">
        <ele>222.1</ele>
        <time>2017-11-22T08:46:40Z</time>
      </trkpt>
      <trkpt lat="43.23204" lon="5.45778">
        <ele>226.3</ele>
        <time>2017-11-22T08:47:00Z</time>
      </trkpt>
      <trkpt lat="43.23203" lon="5.45802">
        <ele>227.5</ele>
        <time>2017-11-22T08:47:23Z</time>
      </trkpt>
      <trkpt lat="43.23202" lon="5.45803">
        <ele>227.8</ele>
        <time>2017-11-22T08:47:24Z</time>
      </trkpt>
      <trkpt lat="43.23197" lon="5.45847">
        <ele>241.6</ele>
        <time>2017-11-22T08:48:07Z</time>
      </trkpt>
      <trkpt lat="43.23198" lon="5.45871">
        <ele>246.3</ele>
        <time>2017-11-22T08:48:29Z</time>
      </trkpt>
      <trkpt lat="43.23198" lon="5.45872">
        <ele>247.1</ele>
        <time>2017-11-22T08:48:30Z</time>
      </trkpt>
      <trkpt lat="43.23184" lon="5.45915">
        <ele>248.8</ele>
        <time>2017-11-22T08:49:15Z</time>
      </trkpt>
      <trkpt lat="43.23169" lon="5.45926">
        <ele>250.3</ele>
        <time>2017-11-22T08:51:43Z</time>
      </trkpt>
      <trkpt lat="43.23168" lon="5.45926">
        <ele>250.6</ele>
        <time>2017-11-22T08:51:44Z</time>
      </trkpt>
      <trkpt lat="43.23135" lon="5.45924">
        <ele>259.3</ele>
        <time>2017-11-22T08:52:45Z</time>
      </trkpt>
      <trkpt lat="43.23135" lon="5.45923">
        <ele>259.2</ele>
        <time>2017-11-22T08:52:46Z</time>
      </trkpt>
      <trkpt lat="43.23121" lon="5.45957">
        <ele>268.6</ele>
        <time>2017-11-22T08:53:53Z</time>
      </trkpt>
      <trkpt lat="43.23121" lon="5.45958">
        <ele>268.3</ele>
        <time>2017-11-22T08:53:54Z</time>
      </trkpt>
      <trkpt lat="43.23089" lon="5.45938">
        <ele>268.7</ele>
        <time>2017-11-22T08:55:14Z</time>
      </trkpt>
      <trkpt lat="43.23089" lon="5.45937">
        <ele>268.7</ele>
        <time>2017-11-22T08:55:15Z</time>
      </trkpt>
      <trkpt lat="43.23087" lon="5.45896">
        <ele>277.5</ele>
        <time>2017-11-22T08:55:51Z</time>
      </trkpt>
      <trkpt lat="43.23094" lon="5.45874">
        <ele>278.8</ele>
        <time>2017-11-22T08:56:07Z</time>
      </trkpt>
      <trkpt lat="43.23098" lon="5.45851">
        <ele>279.5</ele>
        <time>2017-11-22T08:56:23Z</time>
      </trkpt>
      <trkpt lat="43.23098" lon="5.4585">
        <ele>279.2</ele>
        <time>2017-11-22T08:56:24Z</time>
      </trkpt>
      <trkpt lat="43.23087" lon="5.45807">
        <ele>283.8</ele>
        <time>2017-11-22T08:56:57Z</time>
      </trkpt>
      <trkpt lat="43.23075" lon="5.45789">
        <ele>284.6</ele>
        <time>2017-11-22T08:57:14Z</time>
      </trkpt>
      <trkpt lat="43.23062" lon="5.45773">
        <ele>287.7</ele>
        <time>2017-11-22T08:57:34Z</time>
      </trkpt>
      <trkpt lat="43.23061" lon="5.45774">
        <ele>287.2</ele>
        <time>2017-11-22T08:57:35Z</time>
      </trkpt>
      <trkpt lat="43.23072" lon="5.45819">
        <ele>287.8</ele>
        <time>2017-11-22T08:58:14Z</time>
      </trkpt>
      <trkpt lat="43.23073" lon="5.45842">
        <ele>288.2</ele>
        <time>2017-11-22T08:58:32Z</time>
      </trkpt>
      <trkpt lat="43.23069" lon="5.45866">
        <ele>288.8</ele>
        <time>2017-11-22T08:59:02Z</time>
      </trkpt>
      <trkpt lat="43.23069" lon="5.45866">
        <ele>288.7</ele>
        <time>2017-11-22T08:59:03Z</time>
      </trkpt>
      <trkpt lat="43.23053" lon="5.45879">
        <ele>290.3</ele>
        <time>2017-11-22T09:09:43Z</time>
      </trkpt>
      <trkpt lat="43.23026" lon="5.45907">
        <ele>286.1</ele>
        <time>2017-11-22T09:10:24Z</time>
      </trkpt>
      <trkpt lat="43.2303" lon="5.45931">
        <ele>297</ele>
        <time>2017-11-22T09:10:41Z</time>
      </trkpt>
      <trkpt lat="43.23039" lon="5.4595">
        <ele>303.2</ele>
        <time>2017-11-22T09:11:03Z</time>
      </trkpt>
      <trkpt lat="43.23039" lon="5.45952">
        <ele>303.6</ele>
        <time>2017-11-22T09:11:04Z</time>
      </trkpt>
      <trkpt lat="43.23057" lon="5.45992">
        <ele>303.1</ele>
        <time>2017-11-22T09:11:38Z</time>
      </trkpt>
      <trkpt lat="43.23064" lon="5.46014">
        <ele>298.1</ele>
        <time>2017-11-22T09:11:55Z</time>
      </trkpt>
      <trkpt lat="43.23073" lon="5.46033">
        <ele>303.5</ele>
        <time>2017-11-22T09:12:09Z</time>
      </trkpt>
      <trkpt lat="43.23074" lon="5.46035">
        <ele>304.2</ele>
        <time>2017-11-22T09:12:10Z</time>
      </trkpt>
      <trkpt lat="43.23091" lon="5.46074">
        <ele>308.3</ele>
        <time>2017-11-22T09:12:44Z</time>
      </trkpt>
      <trkpt lat="43.23104" lon="5.46088">
        <ele>308.1</ele>
        <time>2017-11-22T09:12:59Z</time>
      </trkpt>
      <trkpt lat="43.23118" lon="5.46101">
        <ele>307.5</ele>
        <time>2017-11-22T09:13:14Z</time>
      </trkpt>
      <trkpt lat="43.23119" lon="5.46102">
        <ele>307.7</ele>
        <time>2017-11-22T09:13:15Z</time>
      </trkpt>
      <trkpt lat="43.23149" lon="5.46123">
        <ele>309.2</ele>
        <time>2017-11-22T09:13:46Z</time>
      </trkpt>
      <trkpt lat="43.23165" lon="5.4613">
        <ele>309.5</ele>
        <time>2017-11-22T09:14:04Z</time>
      </trkpt>
      <trkpt lat="43.2318" lon="5.46141">
        <ele>313.2</ele>
        <time>2017-11-22T09:14:21Z</time>
      </trkpt>
      <trkpt lat="43.23181" lon="5.46142">
        <ele>313</ele>
        <time>2017-11-22T09:14:22Z</time>
      </trkpt>
      <trkpt lat="43.23184" lon="5.46166">
        <ele>311.7</ele>
        <time>2017-11-22T09:15:48Z</time>
      </trkpt>
      <trkpt lat="43.23178" lon="5.46178">
        <ele>318.1</ele>
        <time>2017-11-22T09:16:56Z</time>
      </trkpt>
      <trkpt lat="43.23177" lon="5.46177">
        <ele>318.1</ele>
        <time>2017-11-22T09:16:57Z</time>
      </trkpt>
      <trkpt lat="43.2317" lon="5.46188">
        <ele>322.7</ele>
        <time>2017-11-22T09:18:00Z</time>
      </trkpt>
      <trkpt lat="43.23169" lon="5.46187">
        <ele>323</ele>
        <time>2017-11-22T09:18:01Z</time>
      </trkpt>
      <trkpt lat="43.23142" lon="5.46158">
        <ele>332.7</ele>
        <time>2017-11-22T09:18:42Z</time>
      </trkpt>
      <trkpt lat="43.23125" lon="5.4615">
        <ele>333.5</ele>
        <time>2017-11-22T09:19:02Z</time>
      </trkpt>
      <trkpt lat="43.23124" lon="5.4615">
        <ele>333.2</ele>
        <time>2017-11-22T09:19:03Z</time>
      </trkpt>
      <trkpt lat="43.23118" lon="5.46163">
        <ele>340.2</ele>
        <time>2017-11-22T09:20:13Z</time>
      </trkpt>
      <trkpt lat="43.23119" lon="5.46164">
        <ele>340.5</ele>
        <time>2017-11-22T09:20:14Z</time>
      </trkpt>
      <trkpt lat="43.23132" lon="5.46204">
        <ele>344.5</ele>
        <time>2017-11-22T09:21:03Z</time>
      </trkpt>
      <trkpt lat="43.23126" lon="5.46227">
        <ele>346.2</ele>
        <time>2017-11-22T09:21:56Z</time>
      </trkpt>
      <trkpt lat="43.23126" lon="5.46228">
        <ele>345.8</ele>
        <time>2017-11-22T09:21:57Z</time>
      </trkpt>
      <trkpt lat="43.23095" lon="5.46247">
        <ele>347.7</ele>
        <time>2017-11-22T09:22:34Z</time>
      </trkpt>
      <trkpt lat="43.23077" lon="5.46246">
        <ele>354</ele>
        <time>2017-11-22T09:25:52Z</time>
      </trkpt>
      <trkpt lat="43.23076" lon="5.46246">
        <ele>354.1</ele>
        <time>2017-11-22T09:25:53Z</time>
      </trkpt>
      <trkpt lat="43.23046" lon="5.46222">
        <ele>358.7</ele>
        <time>2017-11-22T09:26:51Z</time>
      </trkpt>
      <trkpt lat="43.23039" lon="5.462">
        <ele>364</ele>
        <time>2017-11-22T09:27:20Z</time>
      </trkpt>
      <trkpt lat="43.23039" lon="5.46199">
        <ele>364.2</ele>
        <time>2017-11-22T09:27:21Z</time>
      </trkpt>
      <trkpt lat="43.23019" lon="5.46163">
        <ele>371.7</ele>
        <time>2017-11-22T09:29:11Z</time>
      </trkpt>
      <trkpt lat="43.23018" lon="5.46162">
        <ele>371.8</ele>
        <time>2017-11-22T09:29:12Z</time>
      </trkpt>
      <trkpt lat="43.23001" lon="5.46121">
        <ele>372.7</ele>
        <time>2017-11-22T09:29:50Z</time>
      </trkpt>
      <trkpt lat="43.22992" lon="5.461">
        <ele>373.5</ele>
        <time>2017-11-22T09:30:08Z</time>
      </trkpt>
      <trkpt lat="43.22986" lon="5.46078">
        <ele>375.5</ele>
        <time>2017-11-22T09:30:29Z</time>
      </trkpt>
      <trkpt lat="43.22985" lon="5.46077">
        <ele>375.5</ele>
        <time>2017-11-22T09:30:30Z</time>
      </trkpt>
      <trkpt lat="43.22975" lon="5.46032">
        <ele>376.6</ele>
        <time>2017-11-22T09:31:05Z</time>
      </trkpt>
      <trkpt lat="43.22966" lon="5.46012">
        <ele>378.2</ele>
        <time>2017-11-22T09:31:21Z</time>
      </trkpt>
      <trkpt lat="43.22954" lon="5.45995">
        <ele>378.6</ele>
        <time>2017-11-22T09:31:38Z</time>
      </trkpt>
      <trkpt lat="43.22953" lon="5.45994">
        <ele>378.6</ele>
        <time>2017-11-22T09:31:39Z</time>
      </trkpt>
      <trkpt lat="43.22925" lon="5.45966">
        <ele>376.2</ele>
        <time>2017-11-22T09:32:10Z</time>
      </trkpt>
      <trkpt lat="43.2291" lon="5.45956">
        <ele>372.2</ele>
        <time>2017-11-22T09:32:25Z</time>
      </trkpt>
      <trkpt lat="43.22896" lon="5.45942">
        <ele>366.2</ele>
        <time>2017-11-22T09:32:43Z</time>
      </trkpt>
      <trkpt lat="43.22896" lon="5.4594">
        <ele>366.2</ele>
        <time>2017-11-22T09:32:44Z</time>
      </trkpt>
      <trkpt lat="43.22908" lon="5.45898">
        <ele>371</ele>
        <time>2017-11-22T09:33:12Z</time>
      </trkpt>
      <trkpt lat="43.22919" lon="5.45878">
        <ele>373</ele>
        <time>2017-11-22T09:33:27Z</time>
      </trkpt>
      <trkpt lat="43.22927" lon="5.45857">
        <ele>373.3</ele>
        <time>2017-11-22T09:33:43Z</time>
      </trkpt>
      <trkpt lat="43.22928" lon="5.45833">
        <ele>375.5</ele>
        <time>2017-11-22T09:34:01Z</time>
      </trkpt>
      <trkpt lat="43.22928" lon="5.45832">
        <ele>375.7</ele>
        <time>2017-11-22T09:34:02Z</time>
      </trkpt>
      <trkpt lat="43.22903" lon="5.458">
        <ele>375.2</ele>
        <time>2017-11-22T09:34:38Z</time>
      </trkpt>
      <trkpt lat="43.229" lon="5.45776">
        <ele>377.1</ele>
        <time>2017-11-22T09:34:54Z</time>
      </trkpt>
      <trkpt lat="43.22894" lon="5.45753">
        <ele>378.6</ele>
        <time>2017-11-22T09:35:13Z</time>
      </trkpt>
      <trkpt lat="43.22894" lon="5.45752">
        <ele>378.7</ele>
        <time>2017-11-22T09:35:14Z</time>
      </trkpt>
      <trkpt lat="43.22883" lon="5.45708">
        <ele>382.5</ele>
        <time>2017-11-22T09:35:47Z</time>
      </trkpt>
      <trkpt lat="43.22877" lon="5.45686">
        <ele>382.7</ele>
        <time>2017-11-22T09:36:03Z</time>
      </trkpt>
      <trkpt lat="43.22878" lon="5.45662">
        <ele>383.2</ele>
        <time>2017-11-22T09:36:21Z</time>
      </trkpt>
      <trkpt lat="43.22879" lon="5.45661">
        <ele>383.3</ele>
        <time>2017-11-22T09:36:22Z</time>
      </trkpt>
      <trkpt lat="43.22872" lon="5.45617">
        <ele>390.1</ele>
        <time>2017-11-22T09:36:56Z</time>
      </trkpt>
      <trkpt lat="43.22861" lon="5.45598">
        <ele>387.8</ele>
        <time>2017-11-22T09:37:45Z</time>
      </trkpt>
      <trkpt lat="43.22861" lon="5.45597">
        <ele>387.7</ele>
        <time>2017-11-22T09:37:46Z</time>
      </trkpt>
      <trkpt lat="43.2285" lon="5.45552">
        <ele>391.8</ele>
        <time>2017-11-22T09:38:34Z</time>
      </trkpt>
      <trkpt lat="43.22836" lon="5.45536">
        <ele>390.3</ele>
        <time>2017-11-22T09:39:17Z</time>
      </trkpt>
      <trkpt lat="43.22835" lon="5.45535">
        <ele>390.2</ele>
        <time>2017-11-22T09:39:18Z</time>
      </trkpt>
      <trkpt lat="43.2281" lon="5.45505">
        <ele>390.6</ele>
        <time>2017-11-22T09:39:46Z</time>
      </trkpt>
      <trkpt lat="43.22794" lon="5.45497">
        <ele>387.3</ele>
        <time>2017-11-22T09:40:02Z</time>
      </trkpt>
      <trkpt lat="43.22776" lon="5.45498">
        <ele>385.7</ele>
        <time>2017-11-22T09:40:36Z</time>
      </trkpt>
      <trkpt lat="43.22776" lon="5.45499">
        <ele>385.7</ele>
        <time>2017-11-22T09:40:37Z</time>
      </trkpt>
      <trkpt lat="43.22744" lon="5.45516">
        <ele>383</ele>
        <time>2017-11-22T09:41:30Z</time>
      </trkpt>
      <trkpt lat="43.22726" lon="5.45517">
        <ele>379.7</ele>
        <time>2017-11-22T09:41:48Z</time>
      </trkpt>
      <trkpt lat="43.22725" lon="5.45516">
        <ele>379.5</ele>
        <time>2017-11-22T09:41:49Z</time>
      </trkpt>
      <trkpt lat="43.2271" lon="5.45474">
        <ele>374.2</ele>
        <time>2017-11-22T09:42:22Z</time>
      </trkpt>
      <trkpt lat="43.227" lon="5.45455">
        <ele>374.1</ele>
        <time>2017-11-22T09:42:48Z</time>
      </trkpt>
      <trkpt lat="43.22684" lon="5.45444">
        <ele>374.3</ele>
        <time>2017-11-22T09:43:07Z</time>
      </trkpt>
      <trkpt lat="43.22683" lon="5.45444">
        <ele>374.3</ele>
        <time>2017-11-22T09:43:08Z</time>
      </trkpt>
      <trkpt lat="43.22648" lon="5.45446">
        <ele>370.6</ele>
        <time>2017-11-22T09:43:39Z</time>
      </trkpt>
      <trkpt lat="43.22633" lon="5.45433">
        <ele>368.2</ele>
        <time>2017-11-22T09:43:55Z</time>
      </trkpt>
      <trkpt lat="43.2262" lon="5.45418">
        <ele>369.1</ele>
        <time>2017-11-22T09:44:11Z</time>
      </trkpt>
      <trkpt lat="43.22619" lon="5.45418">
        <ele>369.2</ele>
        <time>2017-11-22T09:44:12Z</time>
      </trkpt>
      <trkpt lat="43.22587" lon="5.45405">
        <ele>366.6</ele>
        <time>2017-11-22T09:44:40Z</time>
      </trkpt>
      <trkpt lat="43.22574" lon="5.45389">
        <ele>364.7</ele>
        <time>2017-11-22T09:44:56Z</time>
      </trkpt>
      <trkpt lat="43.22569" lon="5.45367">
        <ele>363.5</ele>
        <time>2017-11-22T09:45:12Z</time>
      </trkpt>
      <trkpt lat="43.22568" lon="5.45366">
        <ele>363.5</ele>
        <time>2017-11-22T09:45:13Z</time>
      </trkpt>
      <trkpt lat="43.22552" lon="5.45324">
        <ele>362.5</ele>
        <time>2017-11-22T09:45:45Z</time>
      </trkpt>
      <trkpt lat="43.22551" lon="5.45301">
        <ele>362.1</ele>
        <time>2017-11-22T09:46:01Z</time>
      </trkpt>
      <trkpt lat="43.22556" lon="5.45278">
        <ele>365.3</ele>
        <time>2017-11-22T09:46:15Z</time>
      </trkpt>
      <trkpt lat="43.22556" lon="5.45276">
        <ele>366</ele>
        <time>2017-11-22T09:46:16Z</time>
      </trkpt>
      <trkpt lat="43.22567" lon="5.45233">
        <ele>375</ele>
        <time>2017-11-22T09:46:42Z</time>
      </trkpt>
      <trkpt lat="43.22562" lon="5.45211">
        <ele>378.2</ele>
        <time>2017-11-22T09:46:57Z</time>
      </trkpt>
      <trkpt lat="43.22551" lon="5.45192">
        <ele>379.2</ele>
        <time>2017-11-22T09:47:13Z</time>
      </trkpt>
      <trkpt lat="43.22538" lon="5.45175">
        <ele>379.5</ele>
        <time>2017-11-22T09:47:28Z</time>
      </trkpt>
      <trkpt lat="43.22537" lon="5.45174">
        <ele>379.5</ele>
        <time>2017-11-22T09:47:29Z</time>
      </trkpt>
      <trkpt lat="43.22506" lon="5.45161">
        <ele>372.3</ele>
        <time>2017-11-22T09:48:02Z</time>
      </trkpt>
      <trkpt lat="43.22489" lon="5.45156">
        <ele>371.1</ele>
        <time>2017-11-22T09:48:17Z</time>
      </trkpt>
      <trkpt lat="43.22472" lon="5.45155">
        <ele>368.3</ele>
        <time>2017-11-22T09:48:33Z</time>
      </trkpt>
      <trkpt lat="43.22471" lon="5.45156">
        <ele>367.8</ele>
        <time>2017-11-22T09:48:34Z</time>
      </trkpt>
      <trkpt lat="43.22439" lon="5.45145">
        <ele>366.2</ele>
        <time>2017-11-22T09:49:04Z</time>
      </trkpt>
      <trkpt lat="43.22426" lon="5.45129">
        <ele>365.7</ele>
        <time>2017-11-22T09:49:19Z</time>
      </trkpt>
      <trkpt lat="43.22414" lon="5.45113">
        <ele>364.2</ele>
        <time>2017-11-22T09:49:33Z</time>
      </trkpt>
      <trkpt lat="43.22401" lon="5.45095">
        <ele>363.5</ele>
        <time>2017-11-22T09:49:49Z</time>
      </trkpt>
      <trkpt lat="43.22401" lon="5.45094">
        <ele>363.5</ele>
        <time>2017-11-22T09:49:50Z</time>
      </trkpt>
      <trkpt lat="43.22372" lon="5.45074">
        <ele>360.1</ele>
        <time>2017-11-22T09:50:59Z</time>
      </trkpt>
      <trkpt lat="43.22371" lon="5.45074">
        <ele>359.7</ele>
        <time>2017-11-22T09:51:00Z</time>
      </trkpt>
      <trkpt lat="43.22338" lon="5.4508">
        <ele>354</ele>
        <time>2017-11-22T09:51:31Z</time>
      </trkpt>
      <trkpt lat="43.2232" lon="5.45084">
        <ele>352</ele>
        <time>2017-11-22T09:51:48Z</time>
      </trkpt>
      <trkpt lat="43.22303" lon="5.45086">
        <ele>348.7</ele>
        <time>2017-11-22T09:52:04Z</time>
      </trkpt>
      <trkpt lat="43.22302" lon="5.45086">
        <ele>348.6</ele>
        <time>2017-11-22T09:52:05Z</time>
      </trkpt>
      <trkpt lat="43.22269" lon="5.45089">
        <ele>343.7</ele>
        <time>2017-11-22T09:52:36Z</time>
      </trkpt>
      <trkpt lat="43.22252" lon="5.45096">
        <ele>341.7</ele>
        <time>2017-11-22T09:52:52Z</time>
      </trkpt>
      <trkpt lat="43.22235" lon="5.45101">
        <ele>339.2</ele>
        <time>2017-11-22T09:53:09Z</time>
      </trkpt>
      <trkpt lat="43.22234" lon="5.45101">
        <ele>339.6</ele>
        <time>2017-11-22T09:53:10Z</time>
      </trkpt>
      <trkpt lat="43.22201" lon="5.45094">
        <ele>338.2</ele>
        <time>2017-11-22T09:53:38Z</time>
      </trkpt>
      <trkpt lat="43.22184" lon="5.45092">
        <ele>336.7</ele>
        <time>2017-11-22T09:53:53Z</time>
      </trkpt>
      <trkpt lat="43.22166" lon="5.45092">
        <ele>334.8</ele>
        <time>2017-11-22T09:54:09Z</time>
      </trkpt>
      <trkpt lat="43.22165" lon="5.45091">
        <ele>334.7</ele>
        <time>2017-11-22T09:54:10Z</time>
      </trkpt>
      <trkpt lat="43.22131" lon="5.45092">
        <ele>331.7</ele>
        <time>2017-11-22T09:54:40Z</time>
      </trkpt>
      <trkpt lat="43.22116" lon="5.45098">
        <ele>328.8</ele>
        <time>2017-11-22T09:54:55Z</time>
      </trkpt>
      <trkpt lat="43.22099" lon="5.45107">
        <ele>327.6</ele>
        <time>2017-11-22T09:55:11Z</time>
      </trkpt>
      <trkpt lat="43.22098" lon="5.45108">
        <ele>327.2</ele>
        <time>2017-11-22T09:55:12Z</time>
      </trkpt>
      <trkpt lat="43.22067" lon="5.45124">
        <ele>325.7</ele>
        <time>2017-11-22T09:55:43Z</time>
      </trkpt>
      <trkpt lat="43.2205" lon="5.45129">
        <ele>325</ele>
        <time>2017-11-22T09:55:58Z</time>
      </trkpt>
      <trkpt lat="43.22032" lon="5.45134">
        <ele>324.3</ele>
        <time>2017-11-22T09:56:14Z</time>
      </trkpt>
      <trkpt lat="43.22031" lon="5.45134">
        <ele>324.2</ele>
        <time>2017-11-22T09:56:15Z</time>
      </trkpt>
      <trkpt lat="43.21999" lon="5.45147">
        <ele>320.3</ele>
        <time>2017-11-22T09:56:53Z</time>
      </trkpt>
      <trkpt lat="43.21983" lon="5.45155">
        <ele>316.3</ele>
        <time>2017-11-22T09:57:10Z</time>
      </trkpt>
      <trkpt lat="43.21967" lon="5.45166">
        <ele>312.3</ele>
        <time>2017-11-22T09:57:28Z</time>
      </trkpt>
      <trkpt lat="43.21967" lon="5.45166">
        <ele>312.1</ele>
        <time>2017-11-22T09:57:29Z</time>
      </trkpt>
      <trkpt lat="43.21936" lon="5.45186">
        <ele>309.8</ele>
        <time>2017-11-22T09:58:01Z</time>
      </trkpt>
      <trkpt lat="43.21919" lon="5.45192">
        <ele>308.2</ele>
        <time>2017-11-22T09:58:16Z</time>
      </trkpt>
      <trkpt lat="43.21904" lon="5.45203">
        <ele>307.3</ele>
        <time>2017-11-22T09:58:30Z</time>
      </trkpt>
      <trkpt lat="43.21902" lon="5.45203">
        <ele>308.2</ele>
        <time>2017-11-22T09:58:31Z</time>
      </trkpt>
      <trkpt lat="43.21872" lon="5.45205">
        <ele>307.5</ele>
        <time>2017-11-22T09:59:24Z</time>
      </trkpt>
      <trkpt lat="43.21868" lon="5.45181">
        <ele>306.6</ele>
        <time>2017-11-22T09:59:46Z</time>
      </trkpt>
      <trkpt lat="43.21868" lon="5.4518">
        <ele>306.6</ele>
        <time>2017-11-22T09:59:47Z</time>
      </trkpt>
      <trkpt lat="43.21879" lon="5.45136">
        <ele>304.7</ele>
        <time>2017-11-22T10:00:23Z</time>
      </trkpt>
      <trkpt lat="43.2189" lon="5.45117">
        <ele>299.2</ele>
        <time>2017-11-22T10:00:45Z</time>
      </trkpt>
      <trkpt lat="43.21905" lon="5.45105">
        <ele>293.7</ele>
        <time>2017-11-22T10:01:05Z</time>
      </trkpt>
      <trkpt lat="43.21906" lon="5.45104">
        <ele>293.6</ele>
        <time>2017-11-22T10:01:06Z</time>
      </trkpt>
      <trkpt lat="43.21933" lon="5.45074">
        <ele>286.7</ele>
        <time>2017-11-22T10:01:42Z</time>
      </trkpt>
      <trkpt lat="43.21943" lon="5.45054">
        <ele>289.6</ele>
        <time>2017-11-22T10:01:56Z</time>
      </trkpt>
      <trkpt lat="43.21946" lon="5.4503">
        <ele>289.2</ele>
        <time>2017-11-22T10:02:12Z</time>
      </trkpt>
      <trkpt lat="43.21946" lon="5.45028">
        <ele>289.2</ele>
        <time>2017-11-22T10:02:13Z</time>
      </trkpt>
      <trkpt lat="43.21943" lon="5.44983">
        <ele>285.5</ele>
        <time>2017-11-22T10:02:48Z</time>
      </trkpt>
      <trkpt lat="43.2196" lon="5.44976">
        <ele>279.3</ele>
        <time>2017-11-22T10:03:12Z</time>
      </trkpt>
      <trkpt lat="43.21976" lon="5.44967">
        <ele>274.6</ele>
        <time>2017-11-22T10:03:32Z</time>
      </trkpt>
      <trkpt lat="43.21977" lon="5.44966">
        <ele>275.8</ele>
        <time>2017-11-22T10:03:33Z</time>
      </trkpt>
      <trkpt lat="43.21988" lon="5.44923">
        <ele>279.8</ele>
        <time>2017-11-22T10:04:02Z</time>
      </trkpt>
      <trkpt lat="43.22004" lon="5.44914">
        <ele>276.7</ele>
        <time>2017-11-22T10:04:22Z</time>
      </trkpt>
      <trkpt lat="43.22022" lon="5.44918">
        <ele>271.3</ele>
        <time>2017-11-22T10:04:41Z</time>
      </trkpt>
      <trkpt lat="43.22022" lon="5.44919">
        <ele>270.8</ele>
        <time>2017-11-22T10:04:42Z</time>
      </trkpt>
      <trkpt lat="43.22055" lon="5.44917">
        <ele>263.7</ele>
        <time>2017-11-22T10:05:17Z</time>
      </trkpt>
      <trkpt lat="43.2207" lon="5.44904">
        <ele>263.7</ele>
        <time>2017-11-22T10:05:32Z</time>
      </trkpt>
      <trkpt lat="43.22084" lon="5.4489">
        <ele>263.1</ele>
        <time>2017-11-22T10:05:47Z</time>
      </trkpt>
      <trkpt lat="43.22085" lon="5.4489">
        <ele>263.1</ele>
        <time>2017-11-22T10:05:48Z</time>
      </trkpt>
      <trkpt lat="43.22117" lon="5.44876">
        <ele>260.3</ele>
        <time>2017-11-22T10:06:17Z</time>
      </trkpt>
      <trkpt lat="43.22135" lon="5.44878">
        <ele>257.6</ele>
        <time>2017-11-22T10:06:33Z</time>
      </trkpt>
      <trkpt lat="43.22151" lon="5.44885">
        <ele>252.5</ele>
        <time>2017-11-22T10:06:50Z</time>
      </trkpt>
      <trkpt lat="43.22152" lon="5.44886">
        <ele>252.1</ele>
        <time>2017-11-22T10:06:51Z</time>
      </trkpt>
      <trkpt lat="43.22176" lon="5.44858">
        <ele>256.6</ele>
        <time>2017-11-22T10:07:18Z</time>
      </trkpt>
      <trkpt lat="43.22182" lon="5.44836">
        <ele>255.3</ele>
        <time>2017-11-22T10:07:34Z</time>
      </trkpt>
      <trkpt lat="43.22191" lon="5.44816">
        <ele>254</ele>
        <time>2017-11-22T10:07:51Z</time>
      </trkpt>
      <trkpt lat="43.22192" lon="5.44792">
        <ele>249.3</ele>
        <time>2017-11-22T10:08:17Z</time>
      </trkpt>
      <trkpt lat="43.22192" lon="5.44791">
        <ele>249.3</ele>
        <time>2017-11-22T10:08:18Z</time>
      </trkpt>
      <trkpt lat="43.22188" lon="5.44744">
        <ele>243.8</ele>
        <time>2017-11-22T10:09:07Z</time>
      </trkpt>
      <trkpt lat="43.22173" lon="5.44731">
        <ele>241.8</ele>
        <time>2017-11-22T10:09:25Z</time>
      </trkpt>
      <trkpt lat="43.22172" lon="5.44731">
        <ele>241.6</ele>
        <time>2017-11-22T10:09:26Z</time>
      </trkpt>
      <trkpt lat="43.22141" lon="5.44752">
        <ele>238</ele>
        <time>2017-11-22T10:09:57Z</time>
      </trkpt>
      <trkpt lat="43.2213" lon="5.44769">
        <ele>236.6</ele>
        <time>2017-11-22T10:10:11Z</time>
      </trkpt>
      <trkpt lat="43.22114" lon="5.44778">
        <ele>234</ele>
        <time>2017-11-22T10:10:27Z</time>
      </trkpt>
      <trkpt lat="43.22113" lon="5.44778">
        <ele>233.6</ele>
        <time>2017-11-22T10:10:28Z</time>
      </trkpt>
      <trkpt lat="43.22079" lon="5.44785">
        <ele>232.3</ele>
        <time>2017-11-22T10:10:58Z</time>
      </trkpt>
      <trkpt lat="43.22063" lon="5.44796">
        <ele>232.3</ele>
        <time>2017-11-22T10:11:13Z</time>
      </trkpt>
      <trkpt lat="43.22048" lon="5.44807">
        <ele>232.5</ele>
        <time>2017-11-22T10:11:30Z</time>
      </trkpt>
      <trkpt lat="43.22047" lon="5.44807">
        <ele>232.3</ele>
        <time>2017-11-22T10:11:31Z</time>
      </trkpt>
      <trkpt lat="43.22016" lon="5.44796">
        <ele>230.3</ele>
        <time>2017-11-22T10:11:59Z</time>
      </trkpt>
      <trkpt lat="43.22" lon="5.44786">
        <ele>229.6</ele>
        <time>2017-11-22T10:12:12Z</time>
      </trkpt>
      <trkpt lat="43.21984" lon="5.44775">
        <ele>228.3</ele>
        <time>2017-11-22T10:12:28Z</time>
      </trkpt>
      <trkpt lat="43.2197" lon="5.44762">
        <ele>226.3</ele>
        <time>2017-11-22T10:12:44Z</time>
      </trkpt>
      <trkpt lat="43.21969" lon="5.44761">
        <ele>226.1</ele>
        <time>2017-11-22T10:12:45Z</time>
      </trkpt>
      <trkpt lat="43.21938" lon="5.44742">
        <ele>221.1</ele>
        <time>2017-11-22T10:13:19Z</time>
      </trkpt>
      <trkpt lat="43.21921" lon="5.44736">
        <ele>217.8</ele>
        <time>2017-11-22T10:13:35Z</time>
      </trkpt>
      <trkpt lat="43.21904" lon="5.44733">
        <ele>215.5</ele>
        <time>2017-11-22T10:13:51Z</time>
      </trkpt>
      <trkpt lat="43.21903" lon="5.44732">
        <ele>215.3</ele>
        <time>2017-11-22T10:13:52Z</time>
      </trkpt>
      <trkpt lat="43.21887" lon="5.44754">
        <ele>215.5</ele>
        <time>2017-11-22T10:19:19Z</time>
      </trkpt>
      <trkpt lat="43.21887" lon="5.44755">
        <ele>215.5</ele>
        <time>2017-11-22T10:19:20Z</time>
      </trkpt>
      <trkpt lat="43.21877" lon="5.44799">
        <ele>213.5</ele>
        <time>2017-11-22T10:19:56Z</time>
      </trkpt>
      <trkpt lat="43.21865" lon="5.44816">
        <ele>209.3</ele>
        <time>2017-11-22T10:21:41Z</time>
      </trkpt>
      <trkpt lat="43.21865" lon="5.44817">
        <ele>209.6</ele>
        <time>2017-11-22T10:21:42Z</time>
      </trkpt>
      <trkpt lat="43.21847" lon="5.44817">
        <ele>200.6</ele>
        <time>2017-11-22T10:22:46Z</time>
      </trkpt>
      <trkpt lat="43.21812" lon="5.44818">
        <ele>190.5</ele>
        <time>2017-11-22T10:23:52Z</time>
      </trkpt>
      <trkpt lat="43.21811" lon="5.44818">
        <ele>190.1</ele>
        <time>2017-11-22T10:23:53Z</time>
      </trkpt>
      <trkpt lat="43.21784" lon="5.44796">
        <ele>186.6</ele>
        <time>2017-11-22T10:24:30Z</time>
      </trkpt>
      <trkpt lat="43.21782" lon="5.44772">
        <ele>183.5</ele>
        <time>2017-11-22T10:24:47Z</time>
      </trkpt>
      <trkpt lat="43.21765" lon="5.4477">
        <ele>179.8</ele>
        <time>2017-11-22T10:25:49Z</time>
      </trkpt>
      <trkpt lat="43.21764" lon="5.4477">
        <ele>179.3</ele>
        <time>2017-11-22T10:25:50Z</time>
      </trkpt>
      <trkpt lat="43.21731" lon="5.44778">
        <ele>166.3</ele>
        <time>2017-11-22T10:26:37Z</time>
      </trkpt>
      <trkpt lat="43.21713" lon="5.44777">
        <ele>163.8</ele>
        <time>2017-11-22T10:26:51Z</time>
      </trkpt>
      <trkpt lat="43.21712" lon="5.44777">
        <ele>163.8</ele>
        <time>2017-11-22T10:26:52Z</time>
      </trkpt>
      <trkpt lat="43.2168" lon="5.44775">
        <ele>165.1</ele>
        <time>2017-11-22T10:27:31Z</time>
      </trkpt>
      <trkpt lat="43.21663" lon="5.44772">
        <ele>159.1</ele>
        <time>2017-11-22T10:27:54Z</time>
      </trkpt>
      <trkpt lat="43.21662" lon="5.44772">
        <ele>158.5</ele>
        <time>2017-11-22T10:27:55Z</time>
      </trkpt>
      <trkpt lat="43.21631" lon="5.44754">
        <ele>144.6</ele>
        <time>2017-11-22T10:28:29Z</time>
      </trkpt>
      <trkpt lat="43.21615" lon="5.44749">
        <ele>146.6</ele>
        <time>2017-11-22T10:28:43Z</time>
      </trkpt>
      <trkpt lat="43.21599" lon="5.44759">
        <ele>155.3</ele>
        <time>2017-11-22T10:29:00Z</time>
      </trkpt>
      <trkpt lat="43.21598" lon="5.4476">
        <ele>155.3</ele>
        <time>2017-11-22T10:29:01Z</time>
      </trkpt>
      <trkpt lat="43.21576" lon="5.44794">
        <ele>155.3</ele>
        <time>2017-11-22T10:29:32Z</time>
      </trkpt>
      <trkpt lat="43.21574" lon="5.44818">
        <ele>153.6</ele>
        <time>2017-11-22T10:29:49Z</time>
      </trkpt>
      <trkpt lat="43.21584" lon="5.44837">
        <ele>155.8</ele>
        <time>2017-11-22T10:30:06Z</time>
      </trkpt>
      <trkpt lat="43.21584" lon="5.44839">
        <ele>156.1</ele>
        <time>2017-11-22T10:30:07Z</time>
      </trkpt>
      <trkpt lat="43.2156" lon="5.44871">
        <ele>150.8</ele>
        <time>2017-11-22T10:30:37Z</time>
      </trkpt>
      <trkpt lat="43.2155" lon="5.44891">
        <ele>146.8</ele>
        <time>2017-11-22T10:30:53Z</time>
      </trkpt>
      <trkpt lat="43.21537" lon="5.44906">
        <ele>141.8</ele>
        <time>2017-11-22T10:31:08Z</time>
      </trkpt>
      <trkpt lat="43.21536" lon="5.44907">
        <ele>140.6</ele>
        <time>2017-11-22T10:31:09Z</time>
      </trkpt>
      <trkpt lat="43.21515" lon="5.44939">
        <ele>135.8</ele>
        <time>2017-11-22T10:31:39Z</time>
      </trkpt>
      <trkpt lat="43.21498" lon="5.44936">
        <ele>130</ele>
        <time>2017-11-22T10:31:55Z</time>
      </trkpt>
      <trkpt lat="43.21481" lon="5.44929">
        <ele>122</ele>
        <time>2017-11-22T10:32:11Z</time>
      </trkpt>
      <trkpt lat="43.2148" lon="5.4493">
        <ele>121.8</ele>
        <time>2017-11-22T10:32:12Z</time>
      </trkpt>
      <trkpt lat="43.21455" lon="5.4496">
        <ele>109.5</ele>
        <time>2017-11-22T10:32:40Z</time>
      </trkpt>
      <trkpt lat="43.21438" lon="5.44968">
        <ele>115.4</ele>
        <time>2017-11-22T10:32:54Z</time>
      </trkpt>
      <trkpt lat="43.21421" lon="5.44965">
        <ele>117.1</ele>
        <time>2017-11-22T10:33:07Z</time>
      </trkpt>
      <trkpt lat="43.21404" lon="5.44961">
        <ele>113.6</ele>
        <time>2017-11-22T10:33:21Z</time>
      </trkpt>
      <trkpt lat="43.21402" lon="5.44961">
        <ele>115.5</ele>
        <time>2017-11-22T10:33:22Z</time>
      </trkpt>
      <trkpt lat="43.21397" lon="5.45004">
        <ele>117.3</ele>
        <time>2017-11-22T10:33:51Z</time>
      </trkpt>
      <trkpt lat="43.21396" lon="5.45029">
        <ele>110.6</ele>
        <time>2017-11-22T10:34:07Z</time>
      </trkpt>
      <trkpt lat="43.21386" lon="5.45048">
        <ele>118</ele>
        <time>2017-11-22T10:34:23Z</time>
      </trkpt>
      <trkpt lat="43.21385" lon="5.45049">
        <ele>117.1</ele>
        <time>2017-11-22T10:34:24Z</time>
      </trkpt>
      <trkpt lat="43.21359" lon="5.45078">
        <ele>133.5</ele>
        <time>2017-11-22T10:35:02Z</time>
      </trkpt>
      <trkpt lat="43.21342" lon="5.45084">
        <ele>111.9</ele>
        <time>2017-11-22T10:35:25Z</time>
      </trkpt>
      <trkpt lat="43.21341" lon="5.45083">
        <ele>111</ele>
        <time>2017-11-22T10:35:26Z</time>
      </trkpt>
      <trkpt lat="43.21327" lon="5.45121">
        <ele>102.4</ele>
        <time>2017-11-22T10:36:51Z</time>
      </trkpt>
      <trkpt lat="43.21327" lon="5.45123">
        <ele>101.5</ele>
        <time>2017-11-22T10:36:52Z</time>
      </trkpt>
      <trkpt lat="43.21324" lon="5.45168">
        <ele>100.4</ele>
        <time>2017-11-22T10:37:27Z</time>
      </trkpt>
      <trkpt lat="43.21323" lon="5.45191">
        <ele>101.5</ele>
        <time>2017-11-22T10:37:43Z</time>
      </trkpt>
      <trkpt lat="43.21327" lon="5.45215">
        <ele>96.5</ele>
        <time>2017-11-22T10:38:06Z</time>
      </trkpt>
      <trkpt lat="43.21327" lon="5.45217">
        <ele>96.8</ele>
        <time>2017-11-22T10:38:07Z</time>
      </trkpt>
      <trkpt lat="43.21331" lon="5.45264">
        <ele>101.8</ele>
        <time>2017-11-22T10:40:13Z</time>
      </trkpt>
      <trkpt lat="43.21331" lon="5.45265">
        <ele>100.5</ele>
        <time>2017-11-22T10:40:14Z</time>
      </trkpt>
      <trkpt lat="43.21326" lon="5.45311">
        <ele>82.5</ele>
        <time>2017-11-22T10:41:11Z</time>
      </trkpt>
      <trkpt lat="43.21319" lon="5.45333">
        <ele>87.3</ele>
        <time>2017-11-22T10:41:33Z</time>
      </trkpt>
      <trkpt lat="43.21318" lon="5.45334">
        <ele>87.5</ele>
        <time>2017-11-22T10:41:34Z</time>
      </trkpt>
      <trkpt lat="43.21305" lon="5.45376">
        <ele>78</ele>
        <time>2017-11-22T10:42:21Z</time>
      </trkpt>
      <trkpt lat="43.21293" lon="5.45394">
        <ele>66.3</ele>
        <time>2017-11-22T10:43:03Z</time>
      </trkpt>
      <trkpt lat="43.21292" lon="5.45394">
        <ele>66</ele>
        <time>2017-11-22T10:43:04Z</time>
      </trkpt>
      <trkpt lat="43.2128" lon="5.45412">
        <ele>51.7</ele>
        <time>2017-11-22T10:44:06Z</time>
      </trkpt>
      <trkpt lat="43.21273" lon="5.45457">
        <ele>44.9</ele>
        <time>2017-11-22T10:45:19Z</time>
      </trkpt>
      <trkpt lat="43.21273" lon="5.45459">
        <ele>44.2</ele>
        <time>2017-11-22T10:45:20Z</time>
      </trkpt>
      <trkpt lat="43.2127" lon="5.45505">
        <ele>34.9</ele>
        <time>2017-11-22T10:45:57Z</time>
      </trkpt>
      <trkpt lat="43.21265" lon="5.45528">
        <ele>29.2</ele>
        <time>2017-11-22T10:46:15Z</time>
      </trkpt>
      <trkpt lat="43.21259" lon="5.45551">
        <ele>31</ele>
        <time>2017-11-22T10:46:29Z</time>
      </trkpt>
      <trkpt lat="43.21259" lon="5.45552">
        <ele>30.8</ele>
        <time>2017-11-22T10:46:30Z</time>
      </trkpt>
      <trkpt lat="43.21248" lon="5.45596">
        <ele>33.5</ele>
        <time>2017-11-22T10:47:14Z</time>
      </trkpt>
      <trkpt lat="43.21239" lon="5.45617">
        <ele>32.7</ele>
        <time>2017-11-22T10:47:38Z</time>
      </trkpt>
      <trkpt lat="43.21238" lon="5.45617">
        <ele>32.5</ele>
        <time>2017-11-22T10:47:39Z</time>
      </trkpt>
      <trkpt lat="43.21205" lon="5.45628">
        <ele>29.2</ele>
        <time>2017-11-22T10:48:27Z</time>
      </trkpt>
      <trkpt lat="43.21187" lon="5.45633">
        <ele>26.8</ele>
        <time>2017-11-22T10:48:45Z</time>
      </trkpt>
      <trkpt lat="43.21186" lon="5.45633">
        <ele>27.6</ele>
        <time>2017-11-22T10:48:46Z</time>
      </trkpt>
      <trkpt lat="43.21157" lon="5.4561">
        <ele>31.7</ele>
        <time>2017-11-22T10:49:48Z</time>
      </trkpt>
      <trkpt lat="43.21157" lon="5.4561">
        <ele>32</ele>
        <time>2017-11-22T10:49:49Z</time>
      </trkpt>
      <trkpt lat="43.21149" lon="5.45588">
        <ele>28.8</ele>
        <time>2017-11-22T10:50:51Z</time>
      </trkpt>
      <trkpt lat="43.21167" lon="5.45592">
        <ele>22.2</ele>
        <time>2017-11-22T10:52:19Z</time>
      </trkpt>
      <trkpt lat="43.21196" lon="5.45574">
        <ele>6.3</ele>
        <time>2017-11-22T10:53:39Z</time>
      </trkpt>
      <trkpt lat="43.21196" lon="5.45573">
        <ele>6.3</ele>
        <time>2017-11-22T10:53:40Z</time>
      </trkpt>
      <trkpt lat="43.21211" lon="5.45559">
        <ele>22.3</ele>
        <time>2017-11-22T10:55:09Z</time>
      </trkpt>
      <trkpt lat="43.21212" lon="5.45534">
        <ele>26.2</ele>
        <time>2017-11-22T10:56:23Z</time>
      </trkpt>
      <trkpt lat="43.21191" lon="5.45529">
        <ele>7</ele>
        <time>2017-11-22T10:58:30Z</time>
      </trkpt>
      <trkpt lat="43.2119" lon="5.4553">
        <ele>6.1</ele>
        <time>2017-11-22T10:58:31Z</time>
      </trkpt>
      <trkpt lat="43.21201" lon="5.45508">
        <ele>8.6</ele>
        <time>2017-11-22T10:59:51Z</time>
      </trkpt>
      <trkpt lat="43.21218" lon="5.45517">
        <ele>4.4</ele>
        <time>2017-11-22T12:01:10Z</time>
      </trkpt>
      <trkpt lat="43.21225" lon="5.45495">
        <ele>21.8</ele>
        <time>2017-11-22T12:06:25Z</time>
      </trkpt>
      <trkpt lat="43.21252" lon="5.45463">
        <ele>21.7</ele>
        <time>2017-11-22T12:08:14Z</time>
      </trkpt>
      <trkpt lat="43.21252" lon="5.45463">
        <ele>21.6</ele>
        <time>2017-11-22T12:08:15Z</time>
      </trkpt>
      <trkpt lat="43.21277" lon="5.4543">
        <ele>47.2</ele>
        <time>2017-11-22T12:09:50Z</time>
      </trkpt>
      <trkpt lat="43.21278" lon="5.45429">
        <ele>47.2</ele>
        <time>2017-11-22T12:09:51Z</time>
      </trkpt>
      <trkpt lat="43.21294" lon="5.45391">
        <ele>53.9</ele>
        <time>2017-11-22T12:11:47Z</time>
      </trkpt>
      <trkpt lat="43.21295" lon="5.45391">
        <ele>53.5</ele>
        <time>2017-11-22T12:11:48Z</time>
      </trkpt>
      <trkpt lat="43.21316" lon="5.45352">
        <ele>56.2</ele>
        <time>2017-11-22T12:13:09Z</time>
      </trkpt>
      <trkpt lat="43.21316" lon="5.45351">
        <ele>56.7</ele>
        <time>2017-11-22T12:13:10Z</time>
      </trkpt>
      <trkpt lat="43.21325" lon="5.45305">
        <ele>73.4</ele>
        <time>2017-11-22T12:14:00Z</time>
      </trkpt>
      <trkpt lat="43.21333" lon="5.45284">
        <ele>73</ele>
        <time>2017-11-22T12:14:27Z</time>
      </trkpt>
      <trkpt lat="43.21333" lon="5.45283">
        <ele>73.4</ele>
        <time>2017-11-22T12:14:28Z</time>
      </trkpt>
      <trkpt lat="43.21331" lon="5.45237">
        <ele>91.5</ele>
        <time>2017-11-22T12:16:56Z</time>
      </trkpt>
      <trkpt lat="43.2133" lon="5.45237">
        <ele>91.5</ele>
        <time>2017-11-22T12:16:57Z</time>
      </trkpt>
      <trkpt lat="43.21327" lon="5.45189">
        <ele>89</ele>
        <time>2017-11-22T12:18:33Z</time>
      </trkpt>
      <trkpt lat="43.21326" lon="5.45188">
        <ele>88.8</ele>
        <time>2017-11-22T12:18:34Z</time>
      </trkpt>
      <trkpt lat="43.21327" lon="5.45143">
        <ele>94.6</ele>
        <time>2017-11-22T12:19:18Z</time>
      </trkpt>
      <trkpt lat="43.21325" lon="5.45119">
        <ele>95.8</ele>
        <time>2017-11-22T12:19:45Z</time>
      </trkpt>
      <trkpt lat="43.21324" lon="5.45118">
        <ele>95.9</ele>
        <time>2017-11-22T12:19:46Z</time>
      </trkpt>
      <trkpt lat="43.21337" lon="5.4508">
        <ele>103</ele>
        <time>2017-11-22T12:20:34Z</time>
      </trkpt>
      <trkpt lat="43.21354" lon="5.45085">
        <ele>103</ele>
        <time>2017-11-22T12:20:58Z</time>
      </trkpt>
      <trkpt lat="43.21355" lon="5.45084">
        <ele>103.3</ele>
        <time>2017-11-22T12:20:59Z</time>
      </trkpt>
      <trkpt lat="43.21382" lon="5.45055">
        <ele>103.1</ele>
        <time>2017-11-22T12:21:43Z</time>
      </trkpt>
      <trkpt lat="43.21391" lon="5.45035">
        <ele>112</ele>
        <time>2017-11-22T12:22:02Z</time>
      </trkpt>
      <trkpt lat="43.21391" lon="5.45034">
        <ele>112.9</ele>
        <time>2017-11-22T12:22:03Z</time>
      </trkpt>
      <trkpt lat="43.21389" lon="5.44987">
        <ele>120.9</ele>
        <time>2017-11-22T12:22:44Z</time>
      </trkpt>
      <trkpt lat="43.21388" lon="5.44963">
        <ele>119.5</ele>
        <time>2017-11-22T12:23:04Z</time>
      </trkpt>
      <trkpt lat="43.21389" lon="5.44962">
        <ele>119.1</ele>
        <time>2017-11-22T12:23:05Z</time>
      </trkpt>
      <trkpt lat="43.2142" lon="5.44967">
        <ele>129.5</ele>
        <time>2017-11-22T12:23:40Z</time>
      </trkpt>
      <trkpt lat="43.21437" lon="5.44964">
        <ele>135.5</ele>
        <time>2017-11-22T12:23:53Z</time>
      </trkpt>
      <trkpt lat="43.21453" lon="5.44953">
        <ele>123.1</ele>
        <time>2017-11-22T12:24:13Z</time>
      </trkpt>
      <trkpt lat="43.21454" lon="5.44952">
        <ele>122.5</ele>
        <time>2017-11-22T12:24:14Z</time>
      </trkpt>
      <trkpt lat="43.21483" lon="5.44928">
        <ele>132.6</ele>
        <time>2017-11-22T12:24:56Z</time>
      </trkpt>
      <trkpt lat="43.21499" lon="5.44939">
        <ele>134.8</ele>
        <time>2017-11-22T12:25:15Z</time>
      </trkpt>
      <trkpt lat="43.215" lon="5.44939">
        <ele>134.6</ele>
        <time>2017-11-22T12:25:16Z</time>
      </trkpt>
      <trkpt lat="43.21527" lon="5.44912">
        <ele>131.6</ele>
        <time>2017-11-22T12:25:59Z</time>
      </trkpt>
      <trkpt lat="43.21539" lon="5.44894">
        <ele>133.3</ele>
        <time>2017-11-22T12:26:23Z</time>
      </trkpt>
      <trkpt lat="43.2154" lon="5.44894">
        <ele>132.8</ele>
        <time>2017-11-22T12:26:24Z</time>
      </trkpt>
      <trkpt lat="43.21564" lon="5.44863">
        <ele>142.3</ele>
        <time>2017-11-22T12:27:00Z</time>
      </trkpt>
      <trkpt lat="43.21579" lon="5.44851">
        <ele>141.8</ele>
        <time>2017-11-22T12:27:18Z</time>
      </trkpt>
      <trkpt lat="43.21575" lon="5.44828">
        <ele>140.6</ele>
        <time>2017-11-22T12:27:41Z</time>
      </trkpt>
      <trkpt lat="43.21575" lon="5.44827">
        <ele>141.6</ele>
        <time>2017-11-22T12:27:42Z</time>
      </trkpt>
      <trkpt lat="43.2158" lon="5.44784">
        <ele>146.6</ele>
        <time>2017-11-22T12:28:24Z</time>
      </trkpt>
      <trkpt lat="43.21589" lon="5.44764">
        <ele>147.1</ele>
        <time>2017-11-22T12:28:46Z</time>
      </trkpt>
      <trkpt lat="43.2159" lon="5.44763">
        <ele>148</ele>
        <time>2017-11-22T12:28:47Z</time>
      </trkpt>
      <trkpt lat="43.21619" lon="5.44745">
        <ele>158.1</ele>
        <time>2017-11-22T12:29:28Z</time>
      </trkpt>
      <trkpt lat="43.21634" lon="5.44758">
        <ele>160.3</ele>
        <time>2017-11-22T12:29:48Z</time>
      </trkpt>
      <trkpt lat="43.21635" lon="5.44759">
        <ele>160</ele>
        <time>2017-11-22T12:29:49Z</time>
      </trkpt>
      <trkpt lat="43.21665" lon="5.44777">
        <ele>157.3</ele>
        <time>2017-11-22T12:30:28Z</time>
      </trkpt>
      <trkpt lat="43.21681" lon="5.44785">
        <ele>157.8</ele>
        <time>2017-11-22T12:30:50Z</time>
      </trkpt>
      <trkpt lat="43.21682" lon="5.44785">
        <ele>158.1</ele>
        <time>2017-11-22T12:30:51Z</time>
      </trkpt>
      <trkpt lat="43.21716" lon="5.44777">
        <ele>166.5</ele>
        <time>2017-11-22T12:31:25Z</time>
      </trkpt>
      <trkpt lat="43.21733" lon="5.44773">
        <ele>166.1</ele>
        <time>2017-11-22T12:31:44Z</time>
      </trkpt>
      <trkpt lat="43.2175" lon="5.44778">
        <ele>167.8</ele>
        <time>2017-11-22T12:32:06Z</time>
      </trkpt>
      <trkpt lat="43.21751" lon="5.44778">
        <ele>167.3</ele>
        <time>2017-11-22T12:32:07Z</time>
      </trkpt>
      <trkpt lat="43.21724" lon="5.44752">
        <ele>173.6</ele>
        <time>2017-11-22T12:32:56Z</time>
      </trkpt>
      <trkpt lat="43.2174" lon="5.44744">
        <ele>174.1</ele>
        <time>2017-11-22T12:33:24Z</time>
      </trkpt>
      <trkpt lat="43.21741" lon="5.44744">
        <ele>173.8</ele>
        <time>2017-11-22T12:33:25Z</time>
      </trkpt>
      <trkpt lat="43.21774" lon="5.44759">
        <ele>184.8</ele>
        <time>2017-11-22T12:34:07Z</time>
      </trkpt>
      <trkpt lat="43.21778" lon="5.44781">
        <ele>185.5</ele>
        <time>2017-11-22T12:34:25Z</time>
      </trkpt>
      <trkpt lat="43.21779" lon="5.44783">
        <ele>185.3</ele>
        <time>2017-11-22T12:34:26Z</time>
      </trkpt>
      <trkpt lat="43.21766" lon="5.44817">
        <ele>188.1</ele>
        <time>2017-11-22T12:35:02Z</time>
      </trkpt>
      <trkpt lat="43.21754" lon="5.44834">
        <ele>185.8</ele>
        <time>2017-11-22T12:35:24Z</time>
      </trkpt>
      <trkpt lat="43.2175" lon="5.44857">
        <ele>184</ele>
        <time>2017-11-22T12:35:40Z</time>
      </trkpt>
      <trkpt lat="43.21748" lon="5.44857">
        <ele>184.6</ele>
        <time>2017-11-22T12:35:41Z</time>
      </trkpt>
      <trkpt lat="43.21716" lon="5.44869">
        <ele>187.1</ele>
        <time>2017-11-22T12:36:10Z</time>
      </trkpt>
      <trkpt lat="43.21721" lon="5.44892">
        <ele>191.6</ele>
        <time>2017-11-22T12:36:41Z</time>
      </trkpt>
      <trkpt lat="43.21721" lon="5.44893">
        <ele>191.5</ele>
        <time>2017-11-22T12:36:42Z</time>
      </trkpt>
      <trkpt lat="43.21691" lon="5.44915">
        <ele>196.1</ele>
        <time>2017-11-22T12:37:17Z</time>
      </trkpt>
      <trkpt lat="43.21675" lon="5.44926">
        <ele>197</ele>
        <time>2017-11-22T12:37:35Z</time>
      </trkpt>
      <trkpt lat="43.21664" lon="5.44946">
        <ele>194.8</ele>
        <time>2017-11-22T12:37:55Z</time>
      </trkpt>
      <trkpt lat="43.21664" lon="5.44947">
        <ele>194.3</ele>
        <time>2017-11-22T12:37:56Z</time>
      </trkpt>
      <trkpt lat="43.21696" lon="5.44948">
        <ele>199.5</ele>
        <time>2017-11-22T12:38:36Z</time>
      </trkpt>
      <trkpt lat="43.21712" lon="5.44938">
        <ele>200.1</ele>
        <time>2017-11-22T12:38:55Z</time>
      </trkpt>
      <trkpt lat="43.21729" lon="5.44932">
        <ele>202.1</ele>
        <time>2017-11-22T12:39:13Z</time>
      </trkpt>
      <trkpt lat="43.2173" lon="5.44931">
        <ele>202.1</ele>
        <time>2017-11-22T12:39:14Z</time>
      </trkpt>
      <trkpt lat="43.2176" lon="5.44911">
        <ele>201.1</ele>
        <time>2017-11-22T12:39:46Z</time>
      </trkpt>
      <trkpt lat="43.21777" lon="5.44913">
        <ele>198.8</ele>
        <time>2017-11-22T12:40:03Z</time>
      </trkpt>
      <trkpt lat="43.21795" lon="5.44915">
        <ele>197.6</ele>
        <time>2017-11-22T12:40:21Z</time>
      </trkpt>
      <trkpt lat="43.21796" lon="5.44914">
        <ele>197.8</ele>
        <time>2017-11-22T12:40:22Z</time>
      </trkpt>
      <trkpt lat="43.21808" lon="5.44871">
        <ele>205.3</ele>
        <time>2017-11-22T12:40:53Z</time>
      </trkpt>
      <trkpt lat="43.21822" lon="5.44856">
        <ele>204.8</ele>
        <time>2017-11-22T12:41:09Z</time>
      </trkpt>
      <trkpt lat="43.21839" lon="5.44854">
        <ele>205.8</ele>
        <time>2017-11-22T12:41:34Z</time>
      </trkpt>
      <trkpt lat="43.2184" lon="5.44854">
        <ele>206</ele>
        <time>2017-11-22T12:41:35Z</time>
      </trkpt>
      <trkpt lat="43.21874" lon="5.44854">
        <ele>206.8</ele>
        <time>2017-11-22T12:42:40Z</time>
      </trkpt>
      <trkpt lat="43.21874" lon="5.44854">
        <ele>207</ele>
        <time>2017-11-22T12:42:41Z</time>
      </trkpt>
      <trkpt lat="43.2188" lon="5.4483">
        <ele>205.8</ele>
        <time>2017-11-22T12:43:51Z</time>
      </trkpt>
      <trkpt lat="43.21877" lon="5.44783">
        <ele>210.3</ele>
        <time>2017-11-22T12:44:31Z</time>
      </trkpt>
      <trkpt lat="43.21887" lon="5.44763">
        <ele>210.1</ele>
        <time>2017-11-22T12:44:50Z</time>
      </trkpt>
      <trkpt lat="43.21886" lon="5.44738">
        <ele>211.3</ele>
        <time>2017-11-22T12:45:11Z</time>
      </trkpt>
      <trkpt lat="43.21886" lon="5.44737">
        <ele>211.5</ele>
        <time>2017-11-22T12:45:12Z</time>
      </trkpt>
      <trkpt lat="43.21904" lon="5.44732">
        <ele>217.3</ele>
        <time>2017-11-22T12:50:52Z</time>
      </trkpt>
      <trkpt lat="43.21937" lon="5.44746">
        <ele>219</ele>
        <time>2017-11-22T12:51:28Z</time>
      </trkpt>
      <trkpt lat="43.21953" lon="5.44755">
        <ele>220.3</ele>
        <time>2017-11-22T12:51:46Z</time>
      </trkpt>
      <trkpt lat="43.2197" lon="5.44764">
        <ele>223.3</ele>
        <time>2017-11-22T12:52:07Z</time>
      </trkpt>
      <trkpt lat="43.21971" lon="5.44764">
        <ele>223.6</ele>
        <time>2017-11-22T12:52:08Z</time>
      </trkpt>
      <trkpt lat="43.22001" lon="5.44787">
        <ele>227.1</ele>
        <time>2017-11-22T12:52:44Z</time>
      </trkpt>
      <trkpt lat="43.22015" lon="5.44798">
        <ele>226.1</ele>
        <time>2017-11-22T12:53:01Z</time>
      </trkpt>
      <trkpt lat="43.22031" lon="5.44809">
        <ele>225.8</ele>
        <time>2017-11-22T12:53:18Z</time>
      </trkpt>
      <trkpt lat="43.22032" lon="5.44809">
        <ele>226.1</ele>
        <time>2017-11-22T12:53:19Z</time>
      </trkpt>
      <trkpt lat="43.22063" lon="5.44794">
        <ele>227.1</ele>
        <time>2017-11-22T12:53:50Z</time>
      </trkpt>
      <trkpt lat="43.2208" lon="5.44787">
        <ele>227.8</ele>
        <time>2017-11-22T12:54:06Z</time>
      </trkpt>
      <trkpt lat="43.22096" lon="5.44779">
        <ele>231</ele>
        <time>2017-11-22T12:54:22Z</time>
      </trkpt>
      <trkpt lat="43.22097" lon="5.44779">
        <ele>231.1</ele>
        <time>2017-11-22T12:54:23Z</time>
      </trkpt>
      <trkpt lat="43.22128" lon="5.44766">
        <ele>231.8</ele>
        <time>2017-11-22T12:54:55Z</time>
      </trkpt>
      <trkpt lat="43.22142" lon="5.44752">
        <ele>233.6</ele>
        <time>2017-11-22T12:55:10Z</time>
      </trkpt>
      <trkpt lat="43.22156" lon="5.44738">
        <ele>235.3</ele>
        <time>2017-11-22T12:55:26Z</time>
      </trkpt>
      <trkpt lat="43.22157" lon="5.44737">
        <ele>235.8</ele>
        <time>2017-11-22T12:55:27Z</time>
      </trkpt>
      <trkpt lat="43.22189" lon="5.44748">
        <ele>236.8</ele>
        <time>2017-11-22T12:56:03Z</time>
      </trkpt>
      <trkpt lat="43.22203" lon="5.44759">
        <ele>237.6</ele>
        <time>2017-11-22T12:56:21Z</time>
      </trkpt>
      <trkpt lat="43.22219" lon="5.4477">
        <ele>237.8</ele>
        <time>2017-11-22T12:56:40Z</time>
      </trkpt>
      <trkpt lat="43.2222" lon="5.4477">
        <ele>237.8</ele>
        <time>2017-11-22T12:56:41Z</time>
      </trkpt>
      <trkpt lat="43.22252" lon="5.44785">
        <ele>240</ele>
        <time>2017-11-22T12:57:13Z</time>
      </trkpt>
      <trkpt lat="43.22266" lon="5.448">
        <ele>241.5</ele>
        <time>2017-11-22T12:57:30Z</time>
      </trkpt>
      <trkpt lat="43.22279" lon="5.44816">
        <ele>241.6</ele>
        <time>2017-11-22T12:57:47Z</time>
      </trkpt>
      <trkpt lat="43.2228" lon="5.44817">
        <ele>241.8</ele>
        <time>2017-11-22T12:57:48Z</time>
      </trkpt>
      <trkpt lat="43.22308" lon="5.44839">
        <ele>244</ele>
        <time>2017-11-22T12:58:19Z</time>
      </trkpt>
      <trkpt lat="43.22325" lon="5.44839">
        <ele>243.6</ele>
        <time>2017-11-22T12:58:35Z</time>
      </trkpt>
      <trkpt lat="43.22342" lon="5.44844">
        <ele>244.6</ele>
        <time>2017-11-22T12:58:54Z</time>
      </trkpt>
      <trkpt lat="43.22343" lon="5.44844">
        <ele>244.8</ele>
        <time>2017-11-22T12:58:55Z</time>
      </trkpt>
      <trkpt lat="43.22363" lon="5.44882">
        <ele>251.1</ele>
        <time>2017-11-22T12:59:39Z</time>
      </trkpt>
      <trkpt lat="43.22374" lon="5.44901">
        <ele>252.8</ele>
        <time>2017-11-22T13:00:01Z</time>
      </trkpt>
      <trkpt lat="43.22375" lon="5.44902">
        <ele>253</ele>
        <time>2017-11-22T13:00:02Z</time>
      </trkpt>
      <trkpt lat="43.22395" lon="5.44939">
        <ele>252.3</ele>
        <time>2017-11-22T13:00:37Z</time>
      </trkpt>
      <trkpt lat="43.22407" lon="5.44957">
        <ele>262.3</ele>
        <time>2017-11-22T13:00:56Z</time>
      </trkpt>
      <trkpt lat="43.2242" lon="5.44974">
        <ele>259.7</ele>
        <time>2017-11-22T13:01:15Z</time>
      </trkpt>
      <trkpt lat="43.22421" lon="5.44975">
        <ele>259.2</ele>
        <time>2017-11-22T13:01:16Z</time>
      </trkpt>
      <trkpt lat="43.22455" lon="5.44977">
        <ele>258</ele>
        <time>2017-11-22T13:01:49Z</time>
      </trkpt>
      <trkpt lat="43.22472" lon="5.44973">
        <ele>259.6</ele>
        <time>2017-11-22T13:02:05Z</time>
      </trkpt>
      <trkpt lat="43.2249" lon="5.44967">
        <ele>260.2</ele>
        <time>2017-11-22T13:02:21Z</time>
      </trkpt>
      <trkpt lat="43.22491" lon="5.44967">
        <ele>260.7</ele>
        <time>2017-11-22T13:02:22Z</time>
      </trkpt>
      <trkpt lat="43.22523" lon="5.44954">
        <ele>266.6</ele>
        <time>2017-11-22T13:02:52Z</time>
      </trkpt>
      <trkpt lat="43.22541" lon="5.4495">
        <ele>265</ele>
        <time>2017-11-22T13:03:08Z</time>
      </trkpt>
      <trkpt lat="43.22558" lon="5.44948">
        <ele>266.2</ele>
        <time>2017-11-22T13:03:27Z</time>
      </trkpt>
      <trkpt lat="43.22559" lon="5.44948">
        <ele>266.3</ele>
        <time>2017-11-22T13:03:28Z</time>
      </trkpt>
      <trkpt lat="43.22583" lon="5.4498">
        <ele>267.1</ele>
        <time>2017-11-22T13:03:59Z</time>
      </trkpt>
      <trkpt lat="43.22594" lon="5.44997">
        <ele>266.2</ele>
        <time>2017-11-22T13:04:14Z</time>
      </trkpt>
      <trkpt lat="43.22606" lon="5.45015">
        <ele>267.2</ele>
        <time>2017-11-22T13:04:29Z</time>
      </trkpt>
      <trkpt lat="43.22606" lon="5.45016">
        <ele>267.3</ele>
        <time>2017-11-22T13:04:30Z</time>
      </trkpt>
      <trkpt lat="43.2262" lon="5.45031">
        <ele>274.2</ele>
        <time>2017-11-22T13:06:16Z</time>
      </trkpt>
      <trkpt lat="43.22631" lon="5.45051">
        <ele>271</ele>
        <time>2017-11-22T13:07:24Z</time>
      </trkpt>
      <trkpt lat="43.22661" lon="5.45074">
        <ele>269.2</ele>
        <time>2017-11-22T13:08:02Z</time>
      </trkpt>
      <trkpt lat="43.22675" lon="5.45087">
        <ele>271.1</ele>
        <time>2017-11-22T13:08:21Z</time>
      </trkpt>
      <trkpt lat="43.22686" lon="5.45107">
        <ele>270.1</ele>
        <time>2017-11-22T13:08:41Z</time>
      </trkpt>
      <trkpt lat="43.22686" lon="5.45107">
        <ele>270.2</ele>
        <time>2017-11-22T13:08:42Z</time>
      </trkpt>
      <trkpt lat="43.22689" lon="5.45132">
        <ele>271.7</ele>
        <time>2017-11-22T13:10:08Z</time>
      </trkpt>
      <trkpt lat="43.22691" lon="5.45178">
        <ele>275</ele>
        <time>2017-11-22T13:10:44Z</time>
      </trkpt>
      <trkpt lat="43.22695" lon="5.45201">
        <ele>274.2</ele>
        <time>2017-11-22T13:11:02Z</time>
      </trkpt>
      <trkpt lat="43.22704" lon="5.45222">
        <ele>274.8</ele>
        <time>2017-11-22T13:11:20Z</time>
      </trkpt>
      <trkpt lat="43.22705" lon="5.45223">
        <ele>275</ele>
        <time>2017-11-22T13:11:21Z</time>
      </trkpt>
      <trkpt lat="43.22733" lon="5.4525">
        <ele>278.7</ele>
        <time>2017-11-22T13:11:56Z</time>
      </trkpt>
      <trkpt lat="43.22745" lon="5.45268">
        <ele>280</ele>
        <time>2017-11-22T13:12:14Z</time>
      </trkpt>
      <trkpt lat="43.22754" lon="5.45289">
        <ele>283.2</ele>
        <time>2017-11-22T13:12:33Z</time>
      </trkpt>
      <trkpt lat="43.22755" lon="5.4529">
        <ele>283.3</ele>
        <time>2017-11-22T13:12:34Z</time>
      </trkpt>
      <trkpt lat="43.2277" lon="5.45332">
        <ele>287.1</ele>
        <time>2017-11-22T13:13:15Z</time>
      </trkpt>
      <trkpt lat="43.22783" lon="5.45348">
        <ele>283.7</ele>
        <time>2017-11-22T13:13:31Z</time>
      </trkpt>
      <trkpt lat="43.22799" lon="5.45356">
        <ele>283.3</ele>
        <time>2017-11-22T13:13:49Z</time>
      </trkpt>
      <trkpt lat="43.228" lon="5.45356">
        <ele>283</ele>
        <time>2017-11-22T13:13:50Z</time>
      </trkpt>
      <trkpt lat="43.22834" lon="5.45368">
        <ele>287.8</ele>
        <time>2017-11-22T13:14:21Z</time>
      </trkpt>
      <trkpt lat="43.2285" lon="5.45378">
        <ele>291.6</ele>
        <time>2017-11-22T13:14:40Z</time>
      </trkpt>
      <trkpt lat="43.22865" lon="5.45389">
        <ele>295.6</ele>
        <time>2017-11-22T13:14:57Z</time>
      </trkpt>
      <trkpt lat="43.22866" lon="5.4539">
        <ele>295</ele>
        <time>2017-11-22T13:14:58Z</time>
      </trkpt>
      <trkpt lat="43.22894" lon="5.45416">
        <ele>293.5</ele>
        <time>2017-11-22T13:15:31Z</time>
      </trkpt>
      <trkpt lat="43.22909" lon="5.45428">
        <ele>296.2</ele>
        <time>2017-11-22T13:15:49Z</time>
      </trkpt>
      <trkpt lat="43.22923" lon="5.45444">
        <ele>300.2</ele>
        <time>2017-11-22T13:16:08Z</time>
      </trkpt>
      <trkpt lat="43.22923" lon="5.45444">
        <ele>300.7</ele>
        <time>2017-11-22T13:16:09Z</time>
      </trkpt>
      <trkpt lat="43.22942" lon="5.45483">
        <ele>304.6</ele>
        <time>2017-11-22T13:16:46Z</time>
      </trkpt>
      <trkpt lat="43.2295" lon="5.45505">
        <ele>307.3</ele>
        <time>2017-11-22T13:17:08Z</time>
      </trkpt>
      <trkpt lat="43.22957" lon="5.45527">
        <ele>308.1</ele>
        <time>2017-11-22T13:17:25Z</time>
      </trkpt>
      <trkpt lat="43.22957" lon="5.45529">
        <ele>308</ele>
        <time>2017-11-22T13:17:26Z</time>
      </trkpt>
      <trkpt lat="43.22981" lon="5.45558">
        <ele>314.3</ele>
        <time>2017-11-22T13:18:02Z</time>
      </trkpt>
      <trkpt lat="43.22996" lon="5.4557">
        <ele>315.5</ele>
        <time>2017-11-22T13:18:22Z</time>
      </trkpt>
      <trkpt lat="43.23013" lon="5.45579">
        <ele>318.3</ele>
        <time>2017-11-22T13:18:42Z</time>
      </trkpt>
      <trkpt lat="43.23013" lon="5.45579">
        <ele>318.6</ele>
        <time>2017-11-22T13:18:43Z</time>
      </trkpt>
      <trkpt lat="43.23014" lon="5.45604">
        <ele>314</ele>
        <time>2017-11-22T13:19:56Z</time>
      </trkpt>
      <trkpt lat="43.22997" lon="5.45645">
        <ele>312.6</ele>
        <time>2017-11-22T13:20:37Z</time>
      </trkpt>
      <trkpt lat="43.22988" lon="5.45666">
        <ele>316</ele>
        <time>2017-11-22T13:20:53Z</time>
      </trkpt>
      <trkpt lat="43.22982" lon="5.45688">
        <ele>314.7</ele>
        <time>2017-11-22T13:21:09Z</time>
      </trkpt>
      <trkpt lat="43.22981" lon="5.4569">
        <ele>316.2</ele>
        <time>2017-11-22T13:21:10Z</time>
      </trkpt>
      <trkpt lat="43.22987" lon="5.4573">
        <ele>310.7</ele>
        <time>2017-11-22T13:21:40Z</time>
      </trkpt>
      <trkpt lat="43.23" lon="5.45745">
        <ele>309.5</ele>
        <time>2017-11-22T13:22:01Z</time>
      </trkpt>
      <trkpt lat="43.23014" lon="5.45759">
        <ele>307.5</ele>
        <time>2017-11-22T13:22:18Z</time>
      </trkpt>
      <trkpt lat="43.23015" lon="5.4576">
        <ele>306.2</ele>
        <time>2017-11-22T13:22:19Z</time>
      </trkpt>
      <trkpt lat="43.23039" lon="5.45794">
        <ele>312.8</ele>
        <time>2017-11-22T13:22:48Z</time>
      </trkpt>
      <trkpt lat="43.23051" lon="5.4581">
        <ele>304.7</ele>
        <time>2017-11-22T13:24:44Z</time>
      </trkpt>
      <trkpt lat="43.23052" lon="5.45811">
        <ele>304.7</ele>
        <time>2017-11-22T13:24:45Z</time>
      </trkpt>
      <trkpt lat="43.23055" lon="5.45857">
        <ele>302.8</ele>
        <time>2017-11-22T13:25:32Z</time>
      </trkpt>
      <trkpt lat="43.23048" lon="5.45879">
        <ele>300.5</ele>
        <time>2017-11-22T13:25:48Z</time>
      </trkpt>
      <trkpt lat="43.23047" lon="5.45881">
        <ele>300.2</ele>
        <time>2017-11-22T13:25:49Z</time>
      </trkpt>
      <trkpt lat="43.23024" lon="5.45912">
        <ele>310</ele>
        <time>2017-11-22T13:26:16Z</time>
      </trkpt>
      <trkpt lat="43.23029" lon="5.45936">
        <ele>308.1</ele>
        <time>2017-11-22T13:26:44Z</time>
      </trkpt>
      <trkpt lat="43.23039" lon="5.45956">
        <ele>304.1</ele>
        <time>2017-11-22T13:26:59Z</time>
      </trkpt>
      <trkpt lat="43.23039" lon="5.45957">
        <ele>303.2</ele>
        <time>2017-11-22T13:27:00Z</time>
      </trkpt>
      <trkpt lat="43.23059" lon="5.45995">
        <ele>308.3</ele>
        <time>2017-11-22T13:27:29Z</time>
      </trkpt>
      <trkpt lat="43.23071" lon="5.46014">
        <ele>313.6</ele>
        <time>2017-11-22T13:27:44Z</time>
      </trkpt>
      <trkpt lat="43.23075" lon="5.46037">
        <ele>312.5</ele>
        <time>2017-11-22T13:27:59Z</time>
      </trkpt>
      <trkpt lat="43.23075" lon="5.46061">
        <ele>304</ele>
        <time>2017-11-22T13:28:15Z</time>
      </trkpt>
      <trkpt lat="43.23075" lon="5.46062">
        <ele>303.3</ele>
        <time>2017-11-22T13:28:16Z</time>
      </trkpt>
      <trkpt lat="43.231" lon="5.4609">
        <ele>306.5</ele>
        <time>2017-11-22T13:28:45Z</time>
      </trkpt>
      <trkpt lat="43.23115" lon="5.46102">
        <ele>307.1</ele>
        <time>2017-11-22T13:28:59Z</time>
      </trkpt>
      <trkpt lat="43.2313" lon="5.46115">
        <ele>305.2</ele>
        <time>2017-11-22T13:29:15Z</time>
      </trkpt>
      <trkpt lat="43.23145" lon="5.46126">
        <ele>303.7</ele>
        <time>2017-11-22T13:29:32Z</time>
      </trkpt>
      <trkpt lat="43.23146" lon="5.46126">
        <ele>303.6</ele>
        <time>2017-11-22T13:29:33Z</time>
      </trkpt>
      <trkpt lat="43.23179" lon="5.4614">
        <ele>304.1</ele>
        <time>2017-11-22T13:30:02Z</time>
      </trkpt>
      <trkpt lat="43.23184" lon="5.46163">
        <ele>311.7</ele>
        <time>2017-11-22T13:31:07Z</time>
      </trkpt>
      <trkpt lat="43.23184" lon="5.46164">
        <ele>311.2</ele>
        <time>2017-11-22T13:31:08Z</time>
      </trkpt>
      <trkpt lat="43.23186" lon="5.46204">
        <ele>322.1</ele>
        <time>2017-11-22T13:32:44Z</time>
      </trkpt>
      <trkpt lat="43.23185" lon="5.46205">
        <ele>322</ele>
        <time>2017-11-22T13:32:45Z</time>
      </trkpt>
      <trkpt lat="43.23161" lon="5.46171">
        <ele>330</ele>
        <time>2017-11-22T13:33:27Z</time>
      </trkpt>
      <trkpt lat="43.23145" lon="5.46159">
        <ele>332</ele>
        <time>2017-11-22T13:33:48Z</time>
      </trkpt>
      <trkpt lat="43.23145" lon="5.46158">
        <ele>332.2</ele>
        <time>2017-11-22T13:33:49Z</time>
      </trkpt>
      <trkpt lat="43.23114" lon="5.4614">
        <ele>336</ele>
        <time>2017-11-22T13:34:30Z</time>
      </trkpt>
      <trkpt lat="43.23097" lon="5.4613">
        <ele>337.5</ele>
        <time>2017-11-22T13:34:48Z</time>
      </trkpt>
      <trkpt lat="43.23108" lon="5.4615">
        <ele>341.2</ele>
        <time>2017-11-22T13:35:18Z</time>
      </trkpt>
      <trkpt lat="43.23108" lon="5.46151">
        <ele>341</ele>
        <time>2017-11-22T13:35:19Z</time>
      </trkpt>
      <trkpt lat="43.23132" lon="5.46184">
        <ele>339</ele>
        <time>2017-11-22T13:35:59Z</time>
      </trkpt>
      <trkpt lat="43.23132" lon="5.46208">
        <ele>345.2</ele>
        <time>2017-11-22T13:36:42Z</time>
      </trkpt>
      <trkpt lat="43.23133" lon="5.46209">
        <ele>345.1</ele>
        <time>2017-11-22T13:36:43Z</time>
      </trkpt>
      <trkpt lat="43.23107" lon="5.46237">
        <ele>350.6</ele>
        <time>2017-11-22T13:37:35Z</time>
      </trkpt>
      <trkpt lat="43.2309" lon="5.46246">
        <ele>348.2</ele>
        <time>2017-11-22T13:37:52Z</time>
      </trkpt>
      <trkpt lat="43.23089" lon="5.46247">
        <ele>348.2</ele>
        <time>2017-11-22T13:37:53Z</time>
      </trkpt>
      <trkpt lat="43.23092" lon="5.46271">
        <ele>358.2</ele>
        <time>2017-11-22T13:40:45Z</time>
      </trkpt>
      <trkpt lat="43.23105" lon="5.46288">
        <ele>353.7</ele>
        <time>2017-11-22T13:42:25Z</time>
      </trkpt>
      <trkpt lat="43.23131" lon="5.46319">
        <ele>352.8</ele>
        <time>2017-11-22T13:43:14Z</time>
      </trkpt>
      <trkpt lat="43.23135" lon="5.46341">
        <ele>359.5</ele>
        <time>2017-11-22T13:43:43Z</time>
      </trkpt>
      <trkpt lat="43.23135" lon="5.46343">
        <ele>360.7</ele>
        <time>2017-11-22T13:43:44Z</time>
      </trkpt>
      <trkpt lat="43.2314" lon="5.4639">
        <ele>364.7</ele>
        <time>2017-11-22T13:44:31Z</time>
      </trkpt>
      <trkpt lat="43.23143" lon="5.46414">
        <ele>364</ele>
        <time>2017-11-22T13:44:55Z</time>
      </trkpt>
      <trkpt lat="43.23143" lon="5.46415">
        <ele>364.1</ele>
        <time>2017-11-22T13:44:56Z</time>
      </trkpt>
      <trkpt lat="43.23168" lon="5.46446">
        <ele>383.7</ele>
        <time>2017-11-22T13:46:17Z</time>
      </trkpt>
      <trkpt lat="43.23168" lon="5.46446">
        <ele>384</ele>
        <time>2017-11-22T13:46:18Z</time>
      </trkpt>
      <trkpt lat="43.23194" lon="5.46415">
        <ele>390</ele>
        <time>2017-11-22T13:46:56Z</time>
      </trkpt>
      <trkpt lat="43.23211" lon="5.4641">
        <ele>387.6</ele>
        <time>2017-11-22T13:47:16Z</time>
      </trkpt>
      <trkpt lat="43.23228" lon="5.46409">
        <ele>385.3</ele>
        <time>2017-11-22T13:47:35Z</time>
      </trkpt>
      <trkpt lat="43.2323" lon="5.46409">
        <ele>385.1</ele>
        <time>2017-11-22T13:47:36Z</time>
      </trkpt>
      <trkpt lat="43.23263" lon="5.46416">
        <ele>384.2</ele>
        <time>2017-11-22T13:48:11Z</time>
      </trkpt>
      <trkpt lat="43.23279" lon="5.46425">
        <ele>384.7</ele>
        <time>2017-11-22T13:48:31Z</time>
      </trkpt>
      <trkpt lat="43.23297" lon="5.46426">
        <ele>387.1</ele>
        <time>2017-11-22T13:48:51Z</time>
      </trkpt>
      <trkpt lat="43.23297" lon="5.46426">
        <ele>387.1</ele>
        <time>2017-11-22T13:48:52Z</time>
      </trkpt>
      <trkpt lat="43.2333" lon="5.46416">
        <ele>381.2</ele>
        <time>2017-11-22T13:49:33Z</time>
      </trkpt>
      <trkpt lat="43.23345" lon="5.46404">
        <ele>377.8</ele>
        <time>2017-11-22T13:49:52Z</time>
      </trkpt>
      <trkpt lat="43.23346" lon="5.46403">
        <ele>377.8</ele>
        <time>2017-11-22T13:49:53Z</time>
      </trkpt>
      <trkpt lat="43.23374" lon="5.46376">
        <ele>378.1</ele>
        <time>2017-11-22T13:50:30Z</time>
      </trkpt>
      <trkpt lat="43.23386" lon="5.46359">
        <ele>377</ele>
        <time>2017-11-22T13:50:48Z</time>
      </trkpt>
      <trkpt lat="43.23398" lon="5.46343">
        <ele>376.6</ele>
        <time>2017-11-22T13:51:06Z</time>
      </trkpt>
      <trkpt lat="43.23399" lon="5.46342">
        <ele>376.5</ele>
        <time>2017-11-22T13:51:07Z</time>
      </trkpt>
      <trkpt lat="43.23421" lon="5.46308">
        <ele>377.3</ele>
        <time>2017-11-22T13:51:42Z</time>
      </trkpt>
      <trkpt lat="43.23434" lon="5.46291">
        <ele>377.7</ele>
        <time>2017-11-22T13:51:59Z</time>
      </trkpt>
      <trkpt lat="43.23445" lon="5.46273">
        <ele>379.7</ele>
        <time>2017-11-22T13:52:16Z</time>
      </trkpt>
      <trkpt lat="43.23446" lon="5.46272">
        <ele>379.8</ele>
        <time>2017-11-22T13:52:17Z</time>
      </trkpt>
      <trkpt lat="43.23469" lon="5.46239">
        <ele>384.7</ele>
        <time>2017-11-22T13:52:48Z</time>
      </trkpt>
      <trkpt lat="43.23481" lon="5.46221">
        <ele>386.7</ele>
        <time>2017-11-22T13:53:07Z</time>
      </trkpt>
      <trkpt lat="43.23495" lon="5.46208">
        <ele>386.6</ele>
        <time>2017-11-22T13:53:28Z</time>
      </trkpt>
      <trkpt lat="43.23496" lon="5.46207">
        <ele>386.6</ele>
        <time>2017-11-22T13:53:29Z</time>
      </trkpt>
      <trkpt lat="43.23528" lon="5.46189">
        <ele>393.7</ele>
        <time>2017-11-22T13:54:38Z</time>
      </trkpt>
      <trkpt lat="43.23529" lon="5.46188">
        <ele>393.6</ele>
        <time>2017-11-22T13:54:39Z</time>
      </trkpt>
      <trkpt lat="43.23562" lon="5.46176">
        <ele>393.6</ele>
        <time>2017-11-22T13:55:21Z</time>
      </trkpt>
      <trkpt lat="43.23573" lon="5.46158">
        <ele>394.2</ele>
        <time>2017-11-22T13:55:43Z</time>
      </trkpt>
      <trkpt lat="43.23574" lon="5.46158">
        <ele>394.3</ele>
        <time>2017-11-22T13:55:44Z</time>
      </trkpt>
      <trkpt lat="43.23581" lon="5.46112">
        <ele>394.1</ele>
        <time>2017-11-22T13:56:39Z</time>
      </trkpt>
      <trkpt lat="43.23582" lon="5.46087">
        <ele>391.2</ele>
        <time>2017-11-22T13:57:05Z</time>
      </trkpt>
      <trkpt lat="43.23582" lon="5.46086">
        <ele>391.1</ele>
        <time>2017-11-22T13:57:06Z</time>
      </trkpt>
      <trkpt lat="43.23576" lon="5.4604">
        <ele>383.2</ele>
        <time>2017-11-22T13:57:45Z</time>
      </trkpt>
      <trkpt lat="43.23571" lon="5.46017">
        <ele>380.7</ele>
        <time>2017-11-22T13:58:05Z</time>
      </trkpt>
      <trkpt lat="43.23566" lon="5.45994">
        <ele>376.3</ele>
        <time>2017-11-22T13:58:28Z</time>
      </trkpt>
      <trkpt lat="43.23566" lon="5.45992">
        <ele>376.2</ele>
        <time>2017-11-22T13:58:29Z</time>
      </trkpt>
      <trkpt lat="43.23569" lon="5.45945">
        <ele>368.2</ele>
        <time>2017-11-22T13:59:15Z</time>
      </trkpt>
      <trkpt lat="43.2357" lon="5.45921">
        <ele>364.2</ele>
        <time>2017-11-22T13:59:40Z</time>
      </trkpt>
      <trkpt lat="43.2357" lon="5.4592">
        <ele>364.2</ele>
        <time>2017-11-22T13:59:41Z</time>
      </trkpt>
      <trkpt lat="43.23582" lon="5.45902">
        <ele>359.6</ele>
        <time>2017-11-22T14:01:02Z</time>
      </trkpt>
      <trkpt lat="43.23598" lon="5.45859">
        <ele>353.6</ele>
        <time>2017-11-22T14:01:51Z</time>
      </trkpt>
      <trkpt lat="43.23609" lon="5.45841">
        <ele>348.8</ele>
        <time>2017-11-22T14:02:12Z</time>
      </trkpt>
      <trkpt lat="43.2361" lon="5.4584">
        <ele>348.7</ele>
        <time>2017-11-22T14:02:13Z</time>
      </trkpt>
      <trkpt lat="43.23636" lon="5.4581">
        <ele>342.2</ele>
        <time>2017-11-22T14:02:50Z</time>
      </trkpt>
      <trkpt lat="43.23653" lon="5.45805">
        <ele>341</ele>
        <time>2017-11-22T14:03:09Z</time>
      </trkpt>
      <trkpt lat="43.2367" lon="5.458">
        <ele>338.7</ele>
        <time>2017-11-22T14:03:28Z</time>
      </trkpt>
      <trkpt lat="43.23671" lon="5.458">
        <ele>338.7</ele>
        <time>2017-11-22T14:03:29Z</time>
      </trkpt>
      <trkpt lat="43.23705" lon="5.45796">
        <ele>335.7</ele>
        <time>2017-11-22T14:03:59Z</time>
      </trkpt>
      <trkpt lat="43.23722" lon="5.45793">
        <ele>334.7</ele>
        <time>2017-11-22T14:04:16Z</time>
      </trkpt>
      <trkpt lat="43.2374" lon="5.45795">
        <ele>334.5</ele>
        <time>2017-11-22T14:04:31Z</time>
      </trkpt>
      <trkpt lat="43.23741" lon="5.45795">
        <ele>334.3</ele>
        <time>2017-11-22T14:04:32Z</time>
      </trkpt>
      <trkpt lat="43.23774" lon="5.45804">
        <ele>334</ele>
        <time>2017-11-22T14:05:01Z</time>
      </trkpt>
      <trkpt lat="43.23792" lon="5.45802">
        <ele>333.3</ele>
        <time>2017-11-22T14:05:18Z</time>
      </trkpt>
      <trkpt lat="43.23807" lon="5.4579">
        <ele>332.6</ele>
        <time>2017-11-22T14:05:35Z</time>
      </trkpt>
      <trkpt lat="43.23808" lon="5.4579">
        <ele>332.7</ele>
        <time>2017-11-22T14:05:36Z</time>
      </trkpt>
      <trkpt lat="43.23839" lon="5.45774">
        <ele>334.2</ele>
        <time>2017-11-22T14:06:08Z</time>
      </trkpt>
      <trkpt lat="43.23855" lon="5.45765">
        <ele>335</ele>
        <time>2017-11-22T14:06:23Z</time>
      </trkpt>
      <trkpt lat="43.23871" lon="5.45753">
        <ele>334.5</ele>
        <time>2017-11-22T14:06:52Z</time>
      </trkpt>
      <trkpt lat="43.23871" lon="5.45753">
        <ele>334.3</ele>
        <time>2017-11-22T14:06:53Z</time>
      </trkpt>
      <trkpt lat="43.23893" lon="5.45716">
        <ele>332.2</ele>
        <time>2017-11-22T14:07:36Z</time>
      </trkpt>
      <trkpt lat="43.23905" lon="5.45698">
        <ele>331.5</ele>
        <time>2017-11-22T14:07:53Z</time>
      </trkpt>
      <trkpt lat="43.23906" lon="5.45697">
        <ele>331.3</ele>
        <time>2017-11-22T14:07:54Z</time>
      </trkpt>
      <trkpt lat="43.23939" lon="5.45692">
        <ele>328</ele>
        <time>2017-11-22T14:08:28Z</time>
      </trkpt>
      <trkpt lat="43.23955" lon="5.45701">
        <ele>326.5</ele>
        <time>2017-11-22T14:08:43Z</time>
      </trkpt>
      <trkpt lat="43.23971" lon="5.45707">
        <ele>325.1</ele>
        <time>2017-11-22T14:08:58Z</time>
      </trkpt>
      <trkpt lat="43.23972" lon="5.45707">
        <ele>325.2</ele>
        <time>2017-11-22T14:08:59Z</time>
      </trkpt>
      <trkpt lat="43.24" lon="5.45733">
        <ele>324.2</ele>
        <time>2017-11-22T14:09:28Z</time>
      </trkpt>
      <trkpt lat="43.24007" lon="5.45755">
        <ele>321.5</ele>
        <time>2017-11-22T14:09:48Z</time>
      </trkpt>
      <trkpt lat="43.24014" lon="5.45778">
        <ele>325.1</ele>
        <time>2017-11-22T14:10:03Z</time>
      </trkpt>
      <trkpt lat="43.24014" lon="5.45779">
        <ele>325.2</ele>
        <time>2017-11-22T14:10:04Z</time>
      </trkpt>
    </trkseg>
  </trk>
</gpx>